SIA12 RJAA-KLAX
Flight info
| Callsign | SIA12 |
|---|---|
| Flight time | N/A |
| Altitude | 33000 |
| Route | GULBO Y808 NOLAX Y814 AVBET OTR11 LEPKI/N0485F350 39N160E 40N170E 41N180E 42N170W 42N160W/N0484F370 42N150W 41N140W 39N130W/N0473F390 DCT DACEM DCT PAINT DCT PIRAT DCT BURGL BAYST1 |
| Aircraft | B77W/H-SDE1E2E3FGHIJ2J3J4J5M1RWXY/LB1D1 |
Departure
| Time | 2026-05-06 12:49 |
|---|---|
| Airport | Narita International Airport (RJAA) |
Arrival
| Time | N/A |
|---|---|
| Airport | Los Angeles International Airport (KLAX) |
| Time | Latitude | Longitude | Altitude | Speed | Heading |
|---|---|---|---|---|---|
| 2026-05-06 12:35 | 35.76243 | 140.38322 | 148 ft | 0 kts | 60° |
| 2026-05-06 12:39 | 35.76231 | 140.38296 | 148 ft | 4 kts | 60° |
| 2026-05-06 12:40 | 35.76219 | 140.38268 | 148 ft | 4 kts | 70° |
| 2026-05-06 12:40 | 35.76214 | 140.38237 | 148 ft | 4 kts | 101° |
| 2026-05-06 12:40 | 35.76225 | 140.38209 | 148 ft | 4 kts | 141° |
| 2026-05-06 12:40 | 35.76234 | 140.38201 | 148 ft | 2 kts | 150° |
| 2026-05-06 12:42 | 35.76232 | 140.38203 | 148 ft | 1 kts | 150° |
| 2026-05-06 12:42 | 35.76212 | 140.38217 | 148 ft | 8 kts | 150° |
| 2026-05-06 12:42 | 35.76135 | 140.38273 | 148 ft | 14 kts | 148° |
| 2026-05-06 12:43 | 35.76042 | 140.38270 | 148 ft | 14 kts | 199° |
| 2026-05-06 12:43 | 35.75948 | 140.38291 | 149 ft | 14 kts | 149° |
| 2026-05-06 12:43 | 35.75862 | 140.38353 | 149 ft | 14 kts | 149° |
| 2026-05-06 12:43 | 35.75774 | 140.38409 | 149 ft | 14 kts | 168° |
| 2026-05-06 12:44 | 35.75680 | 140.38377 | 149 ft | 14 kts | 180° |
| 2026-05-06 12:44 | 35.75588 | 140.38423 | 150 ft | 14 kts | 148° |
| 2026-05-06 12:44 | 35.75502 | 140.38488 | 150 ft | 14 kts | 149° |
| 2026-05-06 12:44 | 35.75416 | 140.38553 | 150 ft | 14 kts | 148° |
| 2026-05-06 12:45 | 35.75330 | 140.38616 | 150 ft | 14 kts | 149° |
| 2026-05-06 12:45 | 35.75242 | 140.38677 | 151 ft | 14 kts | 152° |
| 2026-05-06 12:45 | 35.75067 | 140.38799 | 152 ft | 14 kts | 147° |
| 2026-05-06 12:46 | 35.74981 | 140.38863 | 152 ft | 14 kts | 149° |
| 2026-05-06 12:46 | 35.74895 | 140.38924 | 152 ft | 14 kts | 150° |
| 2026-05-06 12:46 | 35.74808 | 140.38987 | 152 ft | 14 kts | 149° |
| 2026-05-06 12:46 | 35.74721 | 140.39051 | 152 ft | 14 kts | 149° |
| 2026-05-06 12:47 | 35.74635 | 140.39113 | 152 ft | 14 kts | 150° |
| 2026-05-06 12:47 | 35.74567 | 140.39125 | 152 ft | 3 kts | 221° |
| 2026-05-06 12:47 | 35.74526 | 140.39025 | 152 ft | 8 kts | 243° |
| 2026-05-06 12:47 | 35.74527 | 140.38963 | 151 ft | 8 kts | 299° |
| 2026-05-06 12:48 | 35.74566 | 140.38914 | 152 ft | 8 kts | 324° |
| 2026-05-06 12:48 | 35.74613 | 140.38877 | 152 ft | 8 kts | 329° |
| 2026-05-06 12:48 | 35.74701 | 140.38813 | 153 ft | 27 kts | 329° |
| 2026-05-06 12:48 | 35.75073 | 140.38545 | 151 ft | 97 kts | 329° |
| 2026-05-06 12:49 | 35.75838 | 140.37991 | 151 ft | 156 kts | 329° |
| 2026-05-06 12:49 | 35.76911 | 140.37215 | 217 ft | 193 kts | 329° |
| 2026-05-06 12:49 | 35.78060 | 140.36403 | 727 ft | 196 kts | 330° |
| 2026-05-06 12:49 | 35.79280 | 140.35549 | 1165 ft | 206 kts | 327° |
| 2026-05-06 12:50 | 35.80529 | 140.34661 | 1762 ft | 207 kts | 326° |
| 2026-05-06 12:50 | 35.81774 | 140.33769 | 2153 ft | 219 kts | 325° |
| 2026-05-06 12:50 | 35.83155 | 140.32751 | 2329 ft | 243 kts | 326° |
| 2026-05-06 12:50 | 35.84674 | 140.31633 | 2637 ft | 263 kts | 326° |
| 2026-05-06 12:51 | 35.86261 | 140.30486 | 3294 ft | 267 kts | 330° |
| 2026-05-06 12:51 | 35.88085 | 140.29963 | 3812 ft | 279 kts | 4° |
| 2026-05-06 12:51 | 35.89899 | 140.30800 | 4491 ft | 283 kts | 39° |
| 2026-05-06 12:51 | 35.91075 | 140.32713 | 5170 ft | 284 kts | 72° |
| 2026-05-06 12:52 | 35.91336 | 140.35103 | 5804 ft | 282 kts | 101° |
| 2026-05-06 12:52 | 35.90713 | 140.37358 | 6402 ft | 277 kts | 121° |
| 2026-05-06 12:52 | 35.89769 | 140.39467 | 6926 ft | 285 kts | 123° |
| 2026-05-06 12:52 | 35.88786 | 140.41602 | 7553 ft | 288 kts | 123° |
| 2026-05-06 12:53 | 35.87784 | 140.43763 | 8197 ft | 292 kts | 124° |
| 2026-05-06 12:53 | 35.86766 | 140.45956 | 8764 ft | 298 kts | 124° |
| 2026-05-06 12:53 | 35.85726 | 140.48199 | 9354 ft | 304 kts | 124° |
| 2026-05-06 12:53 | 35.84671 | 140.50484 | 9942 ft | 309 kts | 124° |
| 2026-05-06 12:54 | 35.83597 | 140.52815 | 10387 ft | 320 kts | 124° |
| 2026-05-06 12:54 | 35.82461 | 140.55279 | 10532 ft | 342 kts | 123° |
| 2026-05-06 12:54 | 35.81265 | 140.57876 | 10700 ft | 363 kts | 123° |
| 2026-05-06 12:54 | 35.79984 | 140.60662 | 10880 ft | 384 kts | 123° |
| 2026-05-06 12:55 | 35.78629 | 140.63619 | 11330 ft | 397 kts | 123° |
| 2026-05-06 12:55 | 35.77277 | 140.66572 | 11973 ft | 404 kts | 123° |
| 2026-05-06 12:55 | 35.75893 | 140.69595 | 12805 ft | 407 kts | 123° |
| 2026-05-06 12:55 | 35.74494 | 140.72643 | 13662 ft | 411 kts | 123° |
| 2026-05-06 12:56 | 35.73073 | 140.75726 | 14365 ft | 417 kts | 123° |
| 2026-05-06 12:56 | 35.71605 | 140.78832 | 15002 ft | 422 kts | 126° |
| 2026-05-06 12:56 | 35.69899 | 140.81795 | 15621 ft | 426 kts | 134° |
| 2026-05-06 12:56 | 35.67930 | 140.84538 | 16247 ft | 430 kts | 137° |
| 2026-05-06 12:57 | 35.65887 | 140.87269 | 16883 ft | 437 kts | 138° |
| 2026-05-06 12:57 | 35.63814 | 140.90042 | 17539 ft | 443 kts | 138° |
| 2026-05-06 12:57 | 35.61726 | 140.92857 | 18194 ft | 449 kts | 138° |
| 2026-05-06 12:57 | 35.59615 | 140.95720 | 18803 ft | 453 kts | 138° |
| 2026-05-06 12:58 | 35.57500 | 140.98603 | 19494 ft | 454 kts | 139° |
| 2026-05-06 12:58 | 35.55389 | 141.01482 | 20235 ft | 454 kts | 139° |
| 2026-05-06 12:58 | 35.53290 | 141.04336 | 20906 ft | 456 kts | 140° |
| 2026-05-06 12:58 | 35.51240 | 141.07318 | 21437 ft | 465 kts | 132° |
| 2026-05-06 12:59 | 35.49645 | 141.10861 | 21918 ft | 483 kts | 118° |
| 2026-05-06 12:59 | 35.48666 | 141.14858 | 22480 ft | 497 kts | 105° |
| 2026-05-06 12:59 | 35.48275 | 141.19093 | 22980 ft | 503 kts | 100° |
| 2026-05-06 12:59 | 35.48007 | 141.23397 | 23423 ft | 509 kts | 99° |
| 2026-05-06 13:00 | 35.47753 | 141.27757 | 23861 ft | 514 kts | 99° |
| 2026-05-06 13:00 | 35.47482 | 141.32141 | 24284 ft | 517 kts | 100° |
| 2026-05-06 13:00 | 35.47183 | 141.36546 | 24696 ft | 520 kts | 100° |
| 2026-05-06 13:00 | 35.46860 | 141.40979 | 25099 ft | 524 kts | 101° |
| 2026-05-06 13:01 | 35.46524 | 141.45387 | 25456 ft | 528 kts | 101° |
| 2026-05-06 13:01 | 35.46175 | 141.49896 | 25829 ft | 532 kts | 100° |
| 2026-05-06 13:01 | 35.45822 | 141.54432 | 26196 ft | 537 kts | 100° |
| 2026-05-06 13:01 | 35.45467 | 141.59004 | 26569 ft | 541 kts | 100° |
| 2026-05-06 13:02 | 35.45110 | 141.63614 | 26930 ft | 545 kts | 100° |
| 2026-05-06 13:02 | 35.44750 | 141.68267 | 27282 ft | 549 kts | 100° |
| 2026-05-06 13:02 | 35.44385 | 141.72940 | 27633 ft | 553 kts | 100° |
| 2026-05-06 13:02 | 35.44111 | 141.77668 | 27969 ft | 559 kts | 95° |
| 2026-05-06 13:03 | 35.44059 | 141.82456 | 28286 ft | 564 kts | 94° |
| 2026-05-06 13:03 | 35.44049 | 141.87293 | 28583 ft | 568 kts | 93° |
| 2026-05-06 13:03 | 35.44049 | 141.92162 | 28887 ft | 572 kts | 93° |
| 2026-05-06 13:03 | 35.44042 | 141.97046 | 29192 ft | 575 kts | 93° |
| 2026-05-06 13:04 | 35.44022 | 142.01893 | 29566 ft | 575 kts | 94° |
| 2026-05-06 13:04 | 35.43991 | 142.06761 | 30433 ft | 563 kts | 94° |
| 2026-05-06 13:04 | 35.43954 | 142.11522 | 31118 ft | 557 kts | 94° |
| 2026-05-06 13:04 | 35.43910 | 142.16271 | 31538 ft | 556 kts | 95° |
| 2026-05-06 13:05 | 35.43861 | 142.21029 | 31784 ft | 560 kts | 94° |
| 2026-05-06 13:05 | 35.43811 | 142.25812 | 32064 ft | 561 kts | 94° |
| 2026-05-06 13:05 | 35.43761 | 142.30601 | 32427 ft | 561 kts | 94° |
| 2026-05-06 13:05 | 35.43713 | 142.35376 | 32881 ft | 558 kts | 94° |
| 2026-05-06 13:06 | 35.43663 | 142.40125 | 33226 ft | 557 kts | 94° |
| 2026-05-06 13:06 | 35.43556 | 142.49666 | 33190 ft | 557 kts | 94° |
| 2026-05-06 13:07 | 35.43442 | 142.59136 | 33191 ft | 554 kts | 94° |
| 2026-05-06 13:07 | 35.43321 | 142.68576 | 33199 ft | 553 kts | 94° |
| 2026-05-06 13:08 | 35.43193 | 142.77964 | 33198 ft | 554 kts | 94° |
| 2026-05-06 13:08 | 35.43058 | 142.87418 | 33201 ft | 554 kts | 94° |
| 2026-05-06 13:09 | 35.42915 | 142.96884 | 33195 ft | 555 kts | 95° |
| 2026-05-06 13:09 | 35.42735 | 143.06368 | 33199 ft | 556 kts | 94° |
| 2026-05-06 13:10 | 35.42590 | 143.15789 | 33205 ft | 556 kts | 94° |
| 2026-05-06 13:10 | 35.42447 | 143.25276 | 33201 ft | 555 kts | 92° |
| 2026-05-06 13:11 | 35.43324 | 143.34699 | 33211 ft | 558 kts | 78° |
| 2026-05-06 13:11 | 35.45720 | 143.43748 | 33216 ft | 558 kts | 66° |
| 2026-05-06 13:12 | 35.48824 | 143.52483 | 33220 ft | 559 kts | 65° |
| 2026-05-06 13:12 | 35.51938 | 143.61229 | 33216 ft | 560 kts | 66° |
| 2026-05-06 13:13 | 35.55000 | 143.70021 | 33214 ft | 560 kts | 66° |
| 2026-05-06 13:13 | 35.58012 | 143.78784 | 33214 ft | 560 kts | 66° |
| 2026-05-06 13:14 | 35.61032 | 143.87603 | 33218 ft | 559 kts | 66° |
| 2026-05-06 13:14 | 35.63540 | 143.94934 | 33219 ft | 559 kts | 66° |
| 2026-05-06 13:15 | 35.66551 | 144.03748 | 33218 ft | 559 kts | 67° |
| 2026-05-06 13:15 | 35.70046 | 144.14012 | 33220 ft | 559 kts | 67° |
| 2026-05-06 13:16 | 35.72537 | 144.21347 | 33224 ft | 559 kts | 67° |
| 2026-05-06 13:16 | 35.75530 | 144.30187 | 33222 ft | 560 kts | 67° |
| 2026-05-06 13:17 | 35.78522 | 144.39050 | 33225 ft | 560 kts | 67° |
| 2026-05-06 13:17 | 35.81509 | 144.47924 | 33226 ft | 560 kts | 67° |
| 2026-05-06 13:18 | 35.84491 | 144.56807 | 33230 ft | 561 kts | 67° |
| 2026-05-06 13:18 | 35.87466 | 144.65695 | 33229 ft | 561 kts | 67° |
| 2026-05-06 13:19 | 35.90428 | 144.74572 | 33436 ft | 564 kts | 67° |
| 2026-05-06 13:19 | 35.91916 | 144.79038 | 33824 ft | 562 kts | 67° |
| 2026-05-06 13:19 | 35.93394 | 144.83487 | 34253 ft | 559 kts | 67° |
| 2026-05-06 13:19 | 35.94871 | 144.87937 | 34558 ft | 559 kts | 67° |
| 2026-05-06 13:20 | 35.96343 | 144.92383 | 34765 ft | 560 kts | 67° |
| 2026-05-06 13:20 | 35.97817 | 144.96835 | 34962 ft | 561 kts | 67° |
| 2026-05-06 13:20 | 35.99292 | 145.01295 | 35148 ft | 562 kts | 67° |
| 2026-05-06 13:21 | 36.02251 | 145.10263 | 35234 ft | 564 kts | 67° |
| 2026-05-06 13:21 | 36.05203 | 145.19234 | 35225 ft | 562 kts | 67° |
| 2026-05-06 13:22 | 36.08117 | 145.28116 | 35234 ft | 560 kts | 67° |
| 2026-05-06 13:22 | 36.11038 | 145.37031 | 35235 ft | 559 kts | 67° |
| 2026-05-06 13:23 | 36.13928 | 145.45969 | 35246 ft | 560 kts | 70° |
| 2026-05-06 13:23 | 36.16110 | 145.55223 | 35235 ft | 561 kts | 76° |
| 2026-05-06 13:24 | 36.17986 | 145.64632 | 35249 ft | 564 kts | 77° |
| 2026-05-06 13:24 | 36.19871 | 145.74013 | 35250 ft | 566 kts | 76° |
| 2026-05-06 13:25 | 36.21821 | 145.83483 | 35252 ft | 568 kts | 76° |
| 2026-05-06 13:25 | 36.23788 | 145.92967 | 35243 ft | 569 kts | 76° |
| 2026-05-06 13:26 | 36.25746 | 146.02454 | 35246 ft | 568 kts | 76° |
| 2026-05-06 13:26 | 36.27690 | 146.11942 | 35244 ft | 568 kts | 76° |
| 2026-05-06 13:27 | 36.29625 | 146.21438 | 35246 ft | 567 kts | 76° |
| 2026-05-06 13:27 | 36.31534 | 146.30846 | 35245 ft | 566 kts | 76° |
| 2026-05-06 13:28 | 36.33447 | 146.40314 | 35250 ft | 566 kts | 76° |
| 2026-05-06 13:28 | 36.35355 | 146.49797 | 35250 ft | 566 kts | 76° |
| 2026-05-06 13:29 | 36.37253 | 146.59272 | 35250 ft | 566 kts | 77° |
| 2026-05-06 13:29 | 36.39146 | 146.68767 | 35258 ft | 567 kts | 76° |
| 2026-05-06 13:30 | 36.41034 | 146.78277 | 35256 ft | 567 kts | 76° |
| 2026-05-06 13:30 | 36.42914 | 146.87787 | 35257 ft | 567 kts | 76° |
| 2026-05-06 13:31 | 36.44775 | 146.97247 | 35260 ft | 567 kts | 76° |
| 2026-05-06 13:31 | 36.46641 | 147.06771 | 35261 ft | 567 kts | 76° |
| 2026-05-06 13:32 | 36.48500 | 147.16308 | 35265 ft | 567 kts | 76° |
| 2026-05-06 13:32 | 36.50350 | 147.25839 | 35267 ft | 567 kts | 76° |
| 2026-05-06 13:33 | 36.52191 | 147.35366 | 35267 ft | 567 kts | 76° |
| 2026-05-06 13:33 | 36.54016 | 147.44859 | 35270 ft | 567 kts | 76° |
| 2026-05-06 13:34 | 36.55844 | 147.54404 | 35275 ft | 567 kts | 76° |
| 2026-05-06 13:34 | 36.57664 | 147.63958 | 35274 ft | 567 kts | 77° |
| 2026-05-06 13:35 | 36.59476 | 147.73513 | 35274 ft | 568 kts | 77° |
| 2026-05-06 13:35 | 36.61284 | 147.83087 | 35278 ft | 568 kts | 77° |
| 2026-05-06 13:36 | 36.63086 | 147.92677 | 35277 ft | 569 kts | 76° |
| 2026-05-06 13:36 | 36.64881 | 148.02279 | 35284 ft | 570 kts | 76° |
| 2026-05-06 13:37 | 36.66673 | 148.11907 | 35284 ft | 571 kts | 77° |
| 2026-05-06 13:37 | 36.68447 | 148.21485 | 35281 ft | 571 kts | 76° |
| 2026-05-06 13:38 | 36.70232 | 148.31166 | 35285 ft | 572 kts | 76° |
| 2026-05-06 13:38 | 36.72007 | 148.40843 | 35288 ft | 573 kts | 76° |
| 2026-05-06 13:39 | 36.73777 | 148.50539 | 35288 ft | 573 kts | 76° |
| 2026-05-06 13:39 | 36.75528 | 148.60176 | 35292 ft | 574 kts | 76° |
| 2026-05-06 13:40 | 36.77285 | 148.69898 | 35293 ft | 574 kts | 76° |
| 2026-05-06 13:40 | 36.79037 | 148.79635 | 35294 ft | 575 kts | 76° |
| 2026-05-06 13:41 | 36.80783 | 148.89390 | 35293 ft | 575 kts | 76° |
| 2026-05-06 13:41 | 36.82522 | 148.99155 | 35296 ft | 576 kts | 76° |
| 2026-05-06 13:42 | 36.84240 | 149.08852 | 35293 ft | 576 kts | 76° |
| 2026-05-06 13:42 | 36.85964 | 149.18628 | 35292 ft | 576 kts | 76° |
| 2026-05-06 13:43 | 36.87678 | 149.28400 | 35292 ft | 576 kts | 76° |
| 2026-05-06 13:43 | 36.89388 | 149.38193 | 35298 ft | 577 kts | 76° |
| 2026-05-06 13:44 | 36.91091 | 149.48000 | 35297 ft | 577 kts | 76° |
| 2026-05-06 13:44 | 36.92785 | 149.57801 | 35300 ft | 577 kts | 76° |
| 2026-05-06 13:45 | 36.94462 | 149.67547 | 35300 ft | 577 kts | 76° |
| 2026-05-06 13:45 | 36.96983 | 149.82290 | 35298 ft | 578 kts | 76° |
| 2026-05-06 13:46 | 36.98662 | 149.92132 | 35300 ft | 578 kts | 76° |
| 2026-05-06 13:46 | 37.00406 | 150.01946 | 35288 ft | 577 kts | 72° |
| 2026-05-06 13:47 | 37.02724 | 150.11526 | 35306 ft | 576 kts | 70° |
| 2026-05-06 13:47 | 37.05137 | 150.21071 | 35310 ft | 576 kts | 69° |
| 2026-05-06 13:48 | 37.07532 | 150.30645 | 35307 ft | 577 kts | 70° |
| 2026-05-06 13:48 | 37.09891 | 150.40243 | 35315 ft | 578 kts | 70° |
| 2026-05-06 13:49 | 37.12236 | 150.49871 | 35310 ft | 579 kts | 70° |
| 2026-05-06 13:49 | 37.14575 | 150.59511 | 35316 ft | 579 kts | 70° |
| 2026-05-06 13:50 | 37.16925 | 150.69216 | 35319 ft | 579 kts | 70° |
| 2026-05-06 13:50 | 37.19261 | 150.78900 | 35321 ft | 580 kts | 70° |
| 2026-05-06 13:51 | 37.21572 | 150.88521 | 35322 ft | 581 kts | 70° |
| 2026-05-06 13:51 | 37.23893 | 150.98220 | 35328 ft | 581 kts | 70° |
| 2026-05-06 13:52 | 37.26209 | 151.07934 | 35312 ft | 582 kts | 70° |
| 2026-05-06 13:52 | 37.28517 | 151.17661 | 35321 ft | 582 kts | 70° |
| 2026-05-06 13:53 | 37.30821 | 151.27408 | 35327 ft | 583 kts | 70° |
| 2026-05-06 13:53 | 37.33120 | 151.37172 | 35329 ft | 584 kts | 70° |
| 2026-05-06 13:54 | 37.35438 | 151.47058 | 35328 ft | 584 kts | 70° |
| 2026-05-06 13:54 | 37.37712 | 151.56798 | 35330 ft | 584 kts | 70° |
| 2026-05-06 13:55 | 37.39997 | 151.66627 | 35328 ft | 585 kts | 70° |
| 2026-05-06 13:55 | 37.42272 | 151.76452 | 35326 ft | 585 kts | 70° |
| 2026-05-06 13:56 | 37.44541 | 151.86292 | 35323 ft | 585 kts | 70° |
| 2026-05-06 13:56 | 37.46790 | 151.96088 | 35324 ft | 585 kts | 70° |
| 2026-05-06 13:57 | 37.49043 | 152.05944 | 35328 ft | 586 kts | 70° |
| 2026-05-06 13:57 | 37.51288 | 152.15803 | 35327 ft | 586 kts | 70° |
| 2026-05-06 13:58 | 37.53526 | 152.25675 | 35332 ft | 586 kts | 70° |
| 2026-05-06 13:58 | 37.55755 | 152.35547 | 35333 ft | 586 kts | 70° |
| 2026-05-06 13:59 | 37.57961 | 152.45361 | 35332 ft | 586 kts | 70° |
| 2026-05-06 13:59 | 37.60174 | 152.55250 | 35333 ft | 585 kts | 70° |
| 2026-05-06 14:00 | 37.62375 | 152.65128 | 35333 ft | 585 kts | 70° |
| 2026-05-06 14:00 | 37.64569 | 152.75017 | 35336 ft | 584 kts | 70° |
| 2026-05-06 14:01 | 37.66749 | 152.84887 | 35336 ft | 584 kts | 70° |
| 2026-05-06 14:01 | 37.68921 | 152.94763 | 35338 ft | 583 kts | 70° |
| 2026-05-06 14:02 | 37.71070 | 153.04572 | 35333 ft | 582 kts | 70° |
| 2026-05-06 14:02 | 37.73221 | 153.14440 | 35335 ft | 582 kts | 70° |
| 2026-05-06 14:03 | 37.75361 | 153.24299 | 35341 ft | 581 kts | 70° |
| 2026-05-06 14:03 | 37.77490 | 153.34147 | 35340 ft | 581 kts | 70° |
| 2026-05-06 14:04 | 37.79612 | 153.44011 | 35332 ft | 580 kts | 70° |
| 2026-05-06 14:04 | 37.81709 | 153.53797 | 35339 ft | 580 kts | 70° |
| 2026-05-06 14:05 | 37.83808 | 153.63642 | 35344 ft | 579 kts | 70° |
| 2026-05-06 14:05 | 37.85900 | 153.73491 | 35344 ft | 579 kts | 70° |
| 2026-05-06 14:06 | 37.87980 | 153.83332 | 35344 ft | 578 kts | 71° |
| 2026-05-06 14:06 | 37.90049 | 153.93168 | 35343 ft | 577 kts | 71° |
| 2026-05-06 14:07 | 37.91759 | 154.01329 | 35346 ft | 577 kts | 71° |
| 2026-05-06 14:07 | 37.93808 | 154.11150 | 35349 ft | 576 kts | 71° |
| 2026-05-06 14:08 | 37.95843 | 154.20946 | 35337 ft | 575 kts | 71° |
| 2026-05-06 14:08 | 37.97829 | 154.30553 | 35355 ft | 574 kts | 71° |
| 2026-05-06 14:09 | 37.99844 | 154.40339 | 35349 ft | 573 kts | 71° |
| 2026-05-06 14:09 | 38.01850 | 154.50130 | 35355 ft | 573 kts | 71° |
| 2026-05-06 14:10 | 38.03833 | 154.59849 | 35354 ft | 573 kts | 71° |
| 2026-05-06 14:10 | 38.05821 | 154.69638 | 35357 ft | 573 kts | 71° |
| 2026-05-06 14:11 | 38.07800 | 154.79430 | 35356 ft | 573 kts | 71° |
| 2026-05-06 14:11 | 38.09773 | 154.89240 | 35356 ft | 573 kts | 71° |
| 2026-05-06 14:12 | 38.11738 | 154.99055 | 35363 ft | 574 kts | 71° |
| 2026-05-06 14:12 | 38.13697 | 155.08880 | 35360 ft | 574 kts | 71° |
| 2026-05-06 14:13 | 38.15648 | 155.18720 | 35359 ft | 574 kts | 71° |
| 2026-05-06 14:13 | 38.17581 | 155.28510 | 35359 ft | 574 kts | 71° |
| 2026-05-06 14:14 | 38.19515 | 155.38357 | 35356 ft | 574 kts | 71° |
| 2026-05-06 14:14 | 38.21439 | 155.48196 | 35359 ft | 573 kts | 71° |
| 2026-05-06 14:15 | 38.23237 | 155.57434 | 35358 ft | 573 kts | 71° |
| 2026-05-06 14:15 | 38.25161 | 155.67369 | 35358 ft | 572 kts | 72° |
| 2026-05-06 14:16 | 38.27063 | 155.77235 | 35360 ft | 572 kts | 72° |
| 2026-05-06 14:16 | 38.28936 | 155.87000 | 35359 ft | 571 kts | 72° |
| 2026-05-06 14:17 | 38.30810 | 155.96817 | 35358 ft | 571 kts | 72° |
| 2026-05-06 14:17 | 38.32674 | 156.06630 | 35359 ft | 571 kts | 72° |
| 2026-05-06 14:18 | 38.34529 | 156.16442 | 35361 ft | 570 kts | 72° |
| 2026-05-06 14:18 | 38.36386 | 156.26314 | 35360 ft | 570 kts | 72° |
| 2026-05-06 14:19 | 38.38229 | 156.36159 | 35364 ft | 571 kts | 72° |
| 2026-05-06 14:19 | 38.40064 | 156.46009 | 35367 ft | 571 kts | 72° |
| 2026-05-06 14:20 | 38.41847 | 156.55632 | 35363 ft | 571 kts | 72° |
| 2026-05-06 14:20 | 38.43666 | 156.65495 | 35367 ft | 571 kts | 72° |
| 2026-05-06 14:21 | 38.45478 | 156.75369 | 35367 ft | 572 kts | 72° |
| 2026-05-06 14:21 | 38.47286 | 156.85274 | 35366 ft | 572 kts | 72° |
| 2026-05-06 14:22 | 38.49085 | 156.95180 | 35366 ft | 572 kts | 72° |
| 2026-05-06 14:22 | 38.50874 | 157.05086 | 35364 ft | 573 kts | 72° |
| 2026-05-06 14:23 | 38.52646 | 157.14942 | 35364 ft | 573 kts | 72° |
| 2026-05-06 14:23 | 38.54421 | 157.24866 | 35368 ft | 573 kts | 72° |
| 2026-05-06 14:24 | 38.56188 | 157.34803 | 35368 ft | 573 kts | 72° |
| 2026-05-06 14:24 | 38.57948 | 157.44749 | 35370 ft | 573 kts | 72° |
| 2026-05-06 14:25 | 38.59699 | 157.54696 | 35372 ft | 573 kts | 72° |
| 2026-05-06 14:25 | 38.61440 | 157.64641 | 35375 ft | 573 kts | 73° |
| 2026-05-06 14:26 | 38.63164 | 157.74535 | 35374 ft | 573 kts | 73° |
| 2026-05-06 14:26 | 38.64889 | 157.84492 | 35375 ft | 573 kts | 73° |
| 2026-05-06 14:27 | 38.66607 | 157.94467 | 35379 ft | 573 kts | 73° |
| 2026-05-06 14:27 | 38.68317 | 158.04444 | 35375 ft | 574 kts | 73° |
| 2026-05-06 14:28 | 38.70020 | 158.14431 | 35380 ft | 574 kts | 73° |
| 2026-05-06 14:28 | 38.71713 | 158.24418 | 35377 ft | 574 kts | 73° |
| 2026-05-06 14:29 | 38.73398 | 158.34417 | 35370 ft | 574 kts | 73° |
| 2026-05-06 14:29 | 38.75064 | 158.44355 | 35375 ft | 574 kts | 73° |
| 2026-05-06 14:30 | 38.76734 | 158.54368 | 35381 ft | 575 kts | 73° |
| 2026-05-06 14:30 | 38.78397 | 158.64399 | 35382 ft | 575 kts | 73° |
| 2026-05-06 14:31 | 38.80053 | 158.74439 | 35381 ft | 575 kts | 73° |
| 2026-05-06 14:31 | 38.81700 | 158.84486 | 35380 ft | 575 kts | 73° |
| 2026-05-06 14:32 | 38.83337 | 158.94530 | 35379 ft | 576 kts | 73° |
| 2026-05-06 14:32 | 38.84958 | 159.04524 | 35382 ft | 576 kts | 73° |
| 2026-05-06 14:33 | 38.86581 | 159.14598 | 35380 ft | 576 kts | 73° |
| 2026-05-06 14:33 | 38.88197 | 159.24679 | 35383 ft | 576 kts | 73° |
| 2026-05-06 14:34 | 38.89804 | 159.34763 | 35382 ft | 576 kts | 74° |
| 2026-05-06 14:34 | 38.91402 | 159.44849 | 35387 ft | 576 kts | 74° |
| 2026-05-06 14:35 | 38.92982 | 159.54878 | 35384 ft | 576 kts | 74° |
| 2026-05-06 14:35 | 38.94564 | 159.64975 | 35386 ft | 577 kts | 74° |
| 2026-05-06 14:36 | 38.96140 | 159.75087 | 35384 ft | 577 kts | 74° |
| 2026-05-06 14:36 | 38.97708 | 159.85196 | 35388 ft | 577 kts | 74° |
| 2026-05-06 14:37 | 38.99274 | 159.95322 | 35388 ft | 577 kts | 74° |
| 2026-05-06 14:37 | 39.00805 | 160.05472 | 35391 ft | 578 kts | 75° |
| 2026-05-06 14:38 | 39.02236 | 160.15578 | 35388 ft | 578 kts | 75° |
| 2026-05-06 14:38 | 39.03662 | 160.25763 | 35375 ft | 578 kts | 75° |
| 2026-05-06 14:39 | 39.05097 | 160.35944 | 35384 ft | 578 kts | 75° |
| 2026-05-06 14:39 | 39.06538 | 160.46149 | 35388 ft | 578 kts | 75° |
| 2026-05-06 14:40 | 39.07966 | 160.56323 | 35381 ft | 578 kts | 75° |
| 2026-05-06 14:40 | 39.09375 | 160.66440 | 35382 ft | 577 kts | 75° |
| 2026-05-06 14:41 | 39.10781 | 160.76617 | 35385 ft | 577 kts | 75° |
| 2026-05-06 14:41 | 39.12180 | 160.86802 | 35380 ft | 576 kts | 75° |
| 2026-05-06 14:42 | 39.13566 | 160.96966 | 35379 ft | 576 kts | 75° |
| 2026-05-06 14:42 | 39.14942 | 161.07127 | 35378 ft | 575 kts | 75° |
| 2026-05-06 14:43 | 39.16301 | 161.17230 | 35380 ft | 575 kts | 75° |
| 2026-05-06 14:43 | 39.17657 | 161.27380 | 35378 ft | 574 kts | 75° |
| 2026-05-06 14:44 | 39.19004 | 161.37527 | 35379 ft | 573 kts | 75° |
| 2026-05-06 14:45 | 39.21004 | 161.52728 | 35380 ft | 572 kts | 75° |
| 2026-05-06 14:45 | 39.22317 | 161.62795 | 35385 ft | 572 kts | 76° |
| 2026-05-06 14:46 | 39.23628 | 161.72919 | 35382 ft | 571 kts | 76° |
| 2026-05-06 14:46 | 39.24927 | 161.83018 | 35382 ft | 570 kts | 76° |
| 2026-05-06 14:47 | 39.26215 | 161.93108 | 35381 ft | 569 kts | 76° |
| 2026-05-06 14:47 | 39.27492 | 162.03181 | 35381 ft | 568 kts | 76° |
| 2026-05-06 14:48 | 39.28759 | 162.13244 | 35381 ft | 567 kts | 76° |
| 2026-05-06 14:48 | 39.30013 | 162.23281 | 35383 ft | 566 kts | 76° |
| 2026-05-06 14:49 | 39.31249 | 162.33245 | 35380 ft | 564 kts | 76° |
| 2026-05-06 14:49 | 39.32480 | 162.43238 | 35377 ft | 562 kts | 77° |
| 2026-05-06 14:50 | 39.33701 | 162.53225 | 35377 ft | 561 kts | 77° |
| 2026-05-06 14:50 | 39.34902 | 162.63117 | 35380 ft | 560 kts | 77° |
| 2026-05-06 14:51 | 39.36100 | 162.73054 | 35377 ft | 558 kts | 77° |
| 2026-05-06 14:51 | 39.37285 | 162.82970 | 35377 ft | 558 kts | 77° |
| 2026-05-06 14:52 | 39.38462 | 162.92882 | 35376 ft | 557 kts | 78° |
| 2026-05-06 14:52 | 39.39629 | 163.02780 | 35376 ft | 557 kts | 78° |
| 2026-05-06 14:53 | 39.40788 | 163.12687 | 35372 ft | 557 kts | 78° |
| 2026-05-06 14:53 | 39.41939 | 163.22603 | 35376 ft | 558 kts | 78° |
| 2026-05-06 14:54 | 39.42890 | 163.30854 | 35377 ft | 559 kts | 78° |
| 2026-05-06 14:54 | 39.44029 | 163.40807 | 35375 ft | 560 kts | 78° |
| 2026-05-06 14:55 | 39.45345 | 163.52411 | 35372 ft | 561 kts | 78° |
| 2026-05-06 14:55 | 39.46289 | 163.60794 | 35377 ft | 562 kts | 78° |
| 2026-05-06 14:56 | 39.47409 | 163.70817 | 35373 ft | 563 kts | 79° |
| 2026-05-06 14:56 | 39.48515 | 163.80789 | 35371 ft | 563 kts | 79° |
| 2026-05-06 14:57 | 39.49620 | 163.90847 | 35368 ft | 563 kts | 79° |
| 2026-05-06 14:57 | 39.50716 | 164.00895 | 35368 ft | 563 kts | 79° |
| 2026-05-06 14:58 | 39.51802 | 164.10939 | 35368 ft | 563 kts | 79° |
| 2026-05-06 14:58 | 39.52878 | 164.20972 | 35367 ft | 562 kts | 79° |
| 2026-05-06 14:59 | 39.53946 | 164.31006 | 35366 ft | 562 kts | 79° |
| 2026-05-06 14:59 | 39.55003 | 164.41032 | 35369 ft | 562 kts | 79° |
| 2026-05-06 15:00 | 39.56053 | 164.51065 | 35367 ft | 561 kts | 79° |
| 2026-05-06 15:00 | 39.57092 | 164.61087 | 35365 ft | 561 kts | 79° |
| 2026-05-06 15:01 | 39.58123 | 164.71109 | 35371 ft | 561 kts | 79° |
| 2026-05-06 15:01 | 39.59138 | 164.81071 | 35367 ft | 560 kts | 80° |
| 2026-05-06 15:02 | 39.60151 | 164.91097 | 35369 ft | 560 kts | 80° |
| 2026-05-06 15:02 | 39.61155 | 165.01113 | 35367 ft | 560 kts | 80° |
| 2026-05-06 15:03 | 39.62148 | 165.11125 | 35364 ft | 559 kts | 80° |
| 2026-05-06 15:03 | 39.63132 | 165.21127 | 35363 ft | 558 kts | 80° |
| 2026-05-06 15:04 | 39.64101 | 165.31058 | 35352 ft | 558 kts | 80° |
| 2026-05-06 15:04 | 39.65065 | 165.41036 | 35365 ft | 557 kts | 80° |
| 2026-05-06 15:05 | 39.66019 | 165.51004 | 35369 ft | 556 kts | 81° |
| 2026-05-06 15:05 | 39.66964 | 165.60967 | 35362 ft | 556 kts | 81° |
| 2026-05-06 15:06 | 39.67901 | 165.70933 | 35361 ft | 556 kts | 81° |
| 2026-05-06 15:06 | 39.68829 | 165.80896 | 35357 ft | 555 kts | 81° |
| 2026-05-06 15:07 | 39.69746 | 165.90846 | 35365 ft | 555 kts | 81° |
| 2026-05-06 15:07 | 39.70649 | 166.00729 | 35360 ft | 554 kts | 81° |
| 2026-05-06 15:08 | 39.71549 | 166.10674 | 35362 ft | 554 kts | 81° |
| 2026-05-06 15:08 | 39.72440 | 166.20624 | 35364 ft | 553 kts | 81° |
| 2026-05-06 15:09 | 39.73321 | 166.30553 | 35354 ft | 553 kts | 81° |
| 2026-05-06 15:09 | 39.74193 | 166.40474 | 35354 ft | 552 kts | 81° |
| 2026-05-06 15:10 | 39.75055 | 166.50384 | 35354 ft | 552 kts | 81° |
| 2026-05-06 15:10 | 39.75902 | 166.60224 | 35355 ft | 551 kts | 81° |
| 2026-05-06 15:11 | 39.76746 | 166.70125 | 35355 ft | 551 kts | 82° |
| 2026-05-06 15:11 | 39.77581 | 166.80020 | 35354 ft | 550 kts | 82° |
| 2026-05-06 15:12 | 39.78407 | 166.89906 | 35353 ft | 550 kts | 82° |
| 2026-05-06 15:12 | 39.79224 | 166.99794 | 35353 ft | 550 kts | 82° |
| 2026-05-06 15:13 | 39.80032 | 167.09679 | 35347 ft | 549 kts | 82° |
| 2026-05-06 15:13 | 39.80832 | 167.19562 | 35349 ft | 549 kts | 82° |
| 2026-05-06 15:14 | 39.81617 | 167.29371 | 35349 ft | 548 kts | 82° |
| 2026-05-06 15:14 | 39.82398 | 167.39237 | 35351 ft | 548 kts | 82° |
| 2026-05-06 15:15 | 39.83170 | 167.49102 | 35346 ft | 547 kts | 82° |
| 2026-05-06 15:15 | 39.83933 | 167.58948 | 35346 ft | 547 kts | 82° |
| 2026-05-06 15:16 | 39.84686 | 167.68787 | 35345 ft | 546 kts | 82° |
| 2026-05-06 15:16 | 39.85431 | 167.78626 | 35351 ft | 545 kts | 82° |
| 2026-05-06 15:17 | 39.86167 | 167.88446 | 35350 ft | 545 kts | 83° |
| 2026-05-06 15:17 | 39.86890 | 167.98222 | 35345 ft | 544 kts | 83° |
| 2026-05-06 15:18 | 39.87609 | 168.08041 | 35338 ft | 544 kts | 83° |
| 2026-05-06 15:18 | 39.88317 | 168.17836 | 35335 ft | 543 kts | 83° |
| 2026-05-06 15:19 | 39.89012 | 168.27574 | 35344 ft | 543 kts | 83° |
| 2026-05-06 15:19 | 39.89705 | 168.37382 | 35341 ft | 542 kts | 83° |
| 2026-05-06 15:20 | 39.90387 | 168.47168 | 35338 ft | 542 kts | 83° |
| 2026-05-06 15:20 | 39.91061 | 168.56944 | 35344 ft | 542 kts | 83° |
| 2026-05-06 15:21 | 39.91726 | 168.66721 | 35340 ft | 542 kts | 83° |
| 2026-05-06 15:21 | 39.92384 | 168.76502 | 35338 ft | 542 kts | 83° |
| 2026-05-06 15:22 | 39.93032 | 168.86268 | 35331 ft | 541 kts | 83° |
| 2026-05-06 15:22 | 39.93673 | 168.96055 | 35331 ft | 541 kts | 83° |
| 2026-05-06 15:23 | 39.94302 | 169.05779 | 35336 ft | 541 kts | 84° |
| 2026-05-06 15:23 | 39.94925 | 169.15553 | 35328 ft | 541 kts | 84° |
| 2026-05-06 15:24 | 39.95541 | 169.25326 | 35341 ft | 541 kts | 84° |
| 2026-05-06 15:24 | 39.96149 | 169.35098 | 35333 ft | 541 kts | 84° |
| 2026-05-06 15:25 | 39.96748 | 169.44866 | 35327 ft | 540 kts | 84° |
| 2026-05-06 15:25 | 39.97339 | 169.54637 | 35330 ft | 540 kts | 84° |
| 2026-05-06 15:26 | 39.97923 | 169.64409 | 35328 ft | 540 kts | 84° |
| 2026-05-06 15:26 | 39.98495 | 169.74099 | 35328 ft | 540 kts | 84° |
| 2026-05-06 15:27 | 39.99065 | 169.83866 | 35326 ft | 539 kts | 84° |
| 2026-05-06 15:27 | 39.99630 | 169.93612 | 35326 ft | 539 kts | 84° |
| 2026-05-06 15:28 | 40.00376 | 170.03322 | 35313 ft | 536 kts | 78° |
| 2026-05-06 15:28 | 40.01734 | 170.12858 | 35325 ft | 535 kts | 77° |
| 2026-05-06 15:29 | 40.03154 | 170.22400 | 35321 ft | 535 kts | 77° |
| 2026-05-06 15:29 | 40.04536 | 170.31884 | 35320 ft | 535 kts | 77° |
| 2026-05-06 15:30 | 40.05895 | 170.41433 | 35316 ft | 535 kts | 77° |
| 2026-05-06 15:30 | 40.07239 | 170.51005 | 35314 ft | 535 kts | 77° |
| 2026-05-06 15:31 | 40.08575 | 170.60567 | 35312 ft | 535 kts | 77° |
| 2026-05-06 15:31 | 40.09905 | 170.70139 | 35316 ft | 535 kts | 77° |
| 2026-05-06 15:32 | 40.11879 | 170.84436 | 35311 ft | 535 kts | 78° |
| 2026-05-06 15:32 | 40.13190 | 170.94012 | 35314 ft | 535 kts | 78° |
| 2026-05-06 15:33 | 40.14494 | 171.03602 | 35307 ft | 535 kts | 78° |
| 2026-05-06 15:33 | 40.15791 | 171.13193 | 35307 ft | 535 kts | 78° |
| 2026-05-06 15:34 | 40.17078 | 171.22784 | 35307 ft | 536 kts | 78° |
| 2026-05-06 15:34 | 40.18358 | 171.32377 | 35302 ft | 536 kts | 78° |
| 2026-05-06 15:35 | 40.19634 | 171.42001 | 35306 ft | 536 kts | 78° |
| 2026-05-06 15:35 | 40.20891 | 171.51551 | 35301 ft | 536 kts | 78° |
| 2026-05-06 15:36 | 40.22148 | 171.61168 | 35302 ft | 536 kts | 78° |
| 2026-05-06 15:36 | 40.23400 | 171.70801 | 35296 ft | 536 kts | 78° |
| 2026-05-06 15:37 | 40.24642 | 171.80427 | 35299 ft | 536 kts | 78° |
| 2026-05-06 15:37 | 40.25868 | 171.90001 | 35296 ft | 536 kts | 78° |
| 2026-05-06 15:38 | 40.27094 | 171.99633 | 35295 ft | 536 kts | 78° |
| 2026-05-06 15:38 | 40.28313 | 172.09278 | 35294 ft | 536 kts | 79° |
| 2026-05-06 15:39 | 40.29523 | 172.18911 | 35295 ft | 536 kts | 79° |
| 2026-05-06 15:39 | 40.30725 | 172.28560 | 35292 ft | 536 kts | 79° |
| 2026-05-06 15:40 | 40.31919 | 172.38205 | 35290 ft | 536 kts | 79° |
| 2026-05-06 15:40 | 40.33106 | 172.47864 | 35290 ft | 536 kts | 79° |
| 2026-05-06 15:41 | 40.34280 | 172.57481 | 35291 ft | 536 kts | 79° |
| 2026-05-06 15:41 | 40.35452 | 172.67154 | 35287 ft | 536 kts | 79° |
| 2026-05-06 15:42 | 40.36614 | 172.76817 | 35293 ft | 537 kts | 79° |
| 2026-05-06 15:42 | 40.37769 | 172.86492 | 35278 ft | 537 kts | 79° |
| 2026-05-06 15:43 | 40.38916 | 172.96167 | 35281 ft | 537 kts | 79° |
| 2026-05-06 15:43 | 40.40047 | 173.05778 | 35280 ft | 537 kts | 79° |
| 2026-05-06 15:44 | 40.41177 | 173.15457 | 35277 ft | 537 kts | 79° |
| 2026-05-06 15:44 | 40.42301 | 173.25151 | 35278 ft | 537 kts | 79° |
| 2026-05-06 15:45 | 40.43235 | 173.33266 | 35274 ft | 537 kts | 79° |
| 2026-05-06 15:45 | 40.44337 | 173.42904 | 35273 ft | 537 kts | 80° |
| 2026-05-06 15:46 | 40.45438 | 173.52611 | 35268 ft | 537 kts | 80° |
| 2026-05-06 15:46 | 40.46531 | 173.62323 | 35268 ft | 537 kts | 80° |
| 2026-05-06 15:47 | 40.47616 | 173.72030 | 35265 ft | 537 kts | 80° |
| 2026-05-06 15:47 | 40.48686 | 173.81683 | 35264 ft | 537 kts | 80° |
| 2026-05-06 15:48 | 40.49754 | 173.91400 | 35264 ft | 537 kts | 80° |
| 2026-05-06 15:48 | 40.50815 | 174.01124 | 35265 ft | 538 kts | 80° |
| 2026-05-06 15:49 | 40.51868 | 174.10860 | 35264 ft | 538 kts | 80° |
| 2026-05-06 15:49 | 40.52913 | 174.20598 | 35259 ft | 538 kts | 80° |
| 2026-05-06 15:50 | 40.53951 | 174.30343 | 35257 ft | 538 kts | 80° |
| 2026-05-06 15:50 | 40.54981 | 174.40096 | 35257 ft | 539 kts | 81° |
| 2026-05-06 15:51 | 40.56004 | 174.49864 | 35251 ft | 539 kts | 81° |
| 2026-05-06 15:51 | 40.57013 | 174.59577 | 35250 ft | 539 kts | 81° |
| 2026-05-06 15:52 | 40.58019 | 174.69356 | 35253 ft | 539 kts | 81° |
| 2026-05-06 15:52 | 40.59018 | 174.79141 | 35254 ft | 539 kts | 81° |
| 2026-05-06 15:53 | 40.60009 | 174.88923 | 35258 ft | 539 kts | 81° |
| 2026-05-06 15:53 | 40.60992 | 174.98716 | 35239 ft | 540 kts | 81° |
| 2026-05-06 15:54 | 40.61962 | 175.08467 | 35246 ft | 540 kts | 81° |
| 2026-05-06 15:54 | 40.62929 | 175.18272 | 35244 ft | 540 kts | 81° |
| 2026-05-06 15:55 | 40.63888 | 175.28088 | 35235 ft | 541 kts | 81° |
| 2026-05-06 15:55 | 40.64840 | 175.37917 | 35236 ft | 541 kts | 81° |
| 2026-05-06 15:56 | 40.65784 | 175.47751 | 35230 ft | 541 kts | 81° |
| 2026-05-06 15:56 | 40.66721 | 175.57598 | 35233 ft | 542 kts | 81° |
| 2026-05-06 15:57 | 40.67649 | 175.67451 | 35237 ft | 542 kts | 81° |
| 2026-05-06 15:57 | 40.68569 | 175.77310 | 35231 ft | 542 kts | 81° |
| 2026-05-06 15:58 | 40.69482 | 175.87180 | 35227 ft | 543 kts | 82° |
| 2026-05-06 15:58 | 40.70387 | 175.97054 | 35228 ft | 543 kts | 82° |
| 2026-05-06 15:59 | 40.71283 | 176.06936 | 35225 ft | 543 kts | 82° |
| 2026-05-06 15:59 | 40.72172 | 176.16826 | 35223 ft | 544 kts | 82° |
| 2026-05-06 16:00 | 40.73054 | 176.26737 | 35222 ft | 544 kts | 82° |
| 2026-05-06 16:00 | 40.73922 | 176.36593 | 35216 ft | 544 kts | 82° |
| 2026-05-06 16:01 | 40.74787 | 176.46507 | 35215 ft | 545 kts | 82° |
| 2026-05-06 16:01 | 40.75646 | 176.56460 | 35210 ft | 545 kts | 82° |
| 2026-05-06 16:02 | 40.76495 | 176.66395 | 35209 ft | 545 kts | 82° |
| 2026-05-06 16:02 | 40.77337 | 176.76344 | 35211 ft | 546 kts | 82° |
| 2026-05-06 16:03 | 40.78165 | 176.86241 | 35206 ft | 546 kts | 82° |
| 2026-05-06 16:03 | 40.78992 | 176.96225 | 35209 ft | 546 kts | 82° |
| 2026-05-06 16:04 | 40.79810 | 177.06203 | 35209 ft | 547 kts | 82° |
| 2026-05-06 16:04 | 40.80620 | 177.16196 | 35204 ft | 548 kts | 82° |
| 2026-05-06 16:05 | 40.81425 | 177.26226 | 35196 ft | 549 kts | 83° |
| 2026-05-06 16:05 | 40.82214 | 177.36179 | 35198 ft | 549 kts | 83° |
| 2026-05-06 16:06 | 40.83000 | 177.46206 | 35189 ft | 549 kts | 83° |
| 2026-05-06 16:06 | 40.83778 | 177.56238 | 35197 ft | 549 kts | 83° |
| 2026-05-06 16:07 | 40.84547 | 177.66272 | 35182 ft | 549 kts | 83° |
| 2026-05-06 16:07 | 40.85307 | 177.76300 | 35189 ft | 549 kts | 83° |
| 2026-05-06 16:08 | 40.86059 | 177.86342 | 35179 ft | 549 kts | 83° |
| 2026-05-06 16:08 | 40.86803 | 177.96398 | 35184 ft | 549 kts | 83° |
| 2026-05-06 16:09 | 40.87532 | 178.06370 | 35169 ft | 549 kts | 83° |
| 2026-05-06 16:09 | 40.88258 | 178.16416 | 35170 ft | 549 kts | 83° |
| 2026-05-06 16:10 | 40.88975 | 178.26466 | 35168 ft | 549 kts | 83° |
| 2026-05-06 16:10 | 40.89684 | 178.36516 | 35163 ft | 549 kts | 83° |
| 2026-05-06 16:11 | 40.90384 | 178.46574 | 35169 ft | 549 kts | 83° |
| 2026-05-06 16:11 | 40.91075 | 178.56638 | 35168 ft | 549 kts | 83° |
| 2026-05-06 16:12 | 40.91753 | 178.66628 | 35158 ft | 549 kts | 83° |
| 2026-05-06 16:12 | 40.92428 | 178.76694 | 35161 ft | 550 kts | 84° |
| 2026-05-06 16:13 | 40.93093 | 178.86770 | 35151 ft | 550 kts | 84° |
| 2026-05-06 16:13 | 40.93750 | 178.96841 | 35154 ft | 550 kts | 84° |
| 2026-05-06 16:14 | 40.94399 | 179.06917 | 35142 ft | 549 kts | 84° |
| 2026-05-06 16:14 | 40.95038 | 179.16995 | 35147 ft | 549 kts | 84° |
| 2026-05-06 16:15 | 40.95669 | 179.27072 | 35137 ft | 549 kts | 84° |
| 2026-05-06 16:15 | 40.96291 | 179.37139 | 35142 ft | 549 kts | 84° |
| 2026-05-06 16:16 | 40.96901 | 179.47160 | 35130 ft | 549 kts | 84° |
| 2026-05-06 16:16 | 40.97507 | 179.57244 | 35135 ft | 549 kts | 84° |
| 2026-05-06 16:17 | 40.98105 | 179.67332 | 35127 ft | 549 kts | 84° |
| 2026-05-06 16:17 | 40.98695 | 179.77411 | 35133 ft | 550 kts | 84° |
| 2026-05-06 16:18 | 40.99280 | 179.87496 | 35115 ft | 550 kts | 84° |
| 2026-05-06 16:18 | 40.99857 | 179.97599 | 35121 ft | 549 kts | 83° |
| 2026-05-06 16:19 | 41.00959 | -179.92437 | 35128 ft | 546 kts | 76° |
| 2026-05-06 16:19 | 41.02404 | -179.82632 | 35113 ft | 546 kts | 76° |
| 2026-05-06 16:20 | 41.03868 | -179.72758 | 35106 ft | 546 kts | 76° |
| 2026-05-06 16:20 | 41.05295 | -179.62868 | 35110 ft | 547 kts | 76° |
| 2026-05-06 16:21 | 41.06696 | -179.52962 | 35101 ft | 547 kts | 76° |
| 2026-05-06 16:21 | 41.08085 | -179.43053 | 35103 ft | 547 kts | 76° |
| 2026-05-06 16:22 | 41.09466 | -179.33146 | 35092 ft | 547 kts | 76° |
| 2026-05-06 16:22 | 41.10843 | -179.23222 | 35097 ft | 546 kts | 76° |
| 2026-05-06 16:23 | 41.12211 | -179.13297 | 35083 ft | 546 kts | 76° |
| 2026-05-06 16:23 | 41.13560 | -179.03450 | 35089 ft | 546 kts | 76° |
| 2026-05-06 16:24 | 41.14910 | -178.93521 | 35079 ft | 546 kts | 76° |
| 2026-05-06 16:24 | 41.16250 | -178.83603 | 35085 ft | 546 kts | 76° |
| 2026-05-06 16:25 | 41.17582 | -178.73670 | 35078 ft | 545 kts | 76° |
| 2026-05-06 16:25 | 41.18905 | -178.63748 | 35077 ft | 546 kts | 76° |
| 2026-05-06 16:26 | 41.20213 | -178.53866 | 35069 ft | 546 kts | 76° |
| 2026-05-06 16:26 | 41.21519 | -178.43930 | 35072 ft | 546 kts | 76° |
| 2026-05-06 16:27 | 41.22818 | -178.33978 | 35064 ft | 546 kts | 76° |
| 2026-05-06 16:27 | 41.24109 | -178.24021 | 35061 ft | 546 kts | 76° |
| 2026-05-06 16:28 | 41.25390 | -178.14065 | 35063 ft | 546 kts | 76° |
| 2026-05-06 16:28 | 41.26656 | -178.04157 | 35056 ft | 547 kts | 76° |
| 2026-05-06 16:29 | 41.27921 | -177.94188 | 35055 ft | 547 kts | 76° |
| 2026-05-06 16:29 | 41.29177 | -177.84217 | 35046 ft | 547 kts | 76° |
| 2026-05-06 16:30 | 41.30012 | -177.77547 | 35047 ft | 547 kts | 76° |
| 2026-05-06 16:30 | 41.31663 | -177.64267 | 35046 ft | 546 kts | 76° |
| 2026-05-06 16:31 | 41.32893 | -177.54288 | 35041 ft | 546 kts | 76° |
| 2026-05-06 16:31 | 41.34113 | -177.44313 | 35033 ft | 546 kts | 76° |
| 2026-05-06 16:32 | 41.35316 | -177.34402 | 35022 ft | 546 kts | 76° |
| 2026-05-06 16:32 | 41.36518 | -177.24432 | 35024 ft | 546 kts | 76° |
| 2026-05-06 16:33 | 41.37712 | -177.14447 | 35022 ft | 545 kts | 76° |
| 2026-05-06 16:34 | 41.39285 | -177.01178 | 35003 ft | 545 kts | 76° |
| 2026-05-06 16:34 | 41.40458 | -176.91202 | 35011 ft | 544 kts | 75° |
| 2026-05-06 16:35 | 41.41620 | -176.81235 | 34995 ft | 544 kts | 75° |
| 2026-05-06 16:35 | 41.42965 | -176.69594 | 35002 ft | 543 kts | 75° |
| 2026-05-06 16:36 | 41.43915 | -176.61314 | 34987 ft | 543 kts | 75° |
| 2026-05-06 16:36 | 41.45049 | -176.51354 | 34991 ft | 542 kts | 75° |
| 2026-05-06 16:37 | 41.46165 | -176.41477 | 34978 ft | 542 kts | 75° |
| 2026-05-06 16:37 | 41.47280 | -176.31535 | 34983 ft | 541 kts | 75° |
| 2026-05-06 16:38 | 41.48385 | -176.21596 | 34973 ft | 541 kts | 75° |
| 2026-05-06 16:38 | 41.48935 | -176.16628 | 35299 ft | 543 kts | 79° |
| 2026-05-06 16:38 | 41.49490 | -176.11592 | 35151 ft | 554 kts | 79° |
| 2026-05-06 16:39 | 41.50618 | -176.01285 | 35054 ft | 568 kts | 80° |
| 2026-05-06 16:39 | 41.51756 | -175.90806 | 34970 ft | 570 kts | 80° |
| 2026-05-06 16:40 | 41.52878 | -175.80348 | 34959 ft | 568 kts | 80° |
| 2026-05-06 16:40 | 41.53987 | -175.69923 | 34949 ft | 566 kts | 80° |
| 2026-05-06 16:41 | 41.55075 | -175.59611 | 34944 ft | 564 kts | 80° |
| 2026-05-06 16:41 | 41.56161 | -175.49238 | 34943 ft | 563 kts | 80° |
| 2026-05-06 16:42 | 41.57236 | -175.38884 | 34938 ft | 563 kts | 80° |
| 2026-05-06 16:42 | 41.58301 | -175.28529 | 34933 ft | 563 kts | 80° |
| 2026-05-06 16:43 | 41.59359 | -175.18149 | 34928 ft | 564 kts | 81° |
| 2026-05-06 16:43 | 41.60409 | -175.07751 | 34924 ft | 565 kts | 81° |
| 2026-05-06 16:44 | 41.61450 | -174.97342 | 34915 ft | 565 kts | 81° |
| 2026-05-06 16:44 | 41.62477 | -174.86977 | 34909 ft | 566 kts | 81° |
| 2026-05-06 16:45 | 41.63501 | -174.76542 | 34903 ft | 566 kts | 81° |
| 2026-05-06 16:45 | 41.64517 | -174.66092 | 34896 ft | 566 kts | 81° |
| 2026-05-06 16:46 | 41.65522 | -174.55657 | 34894 ft | 566 kts | 81° |
| 2026-05-06 16:46 | 41.66516 | -174.45229 | 34886 ft | 565 kts | 81° |
| 2026-05-06 16:47 | 41.67501 | -174.34795 | 34886 ft | 565 kts | 81° |
| 2026-05-06 16:47 | 41.68469 | -174.24437 | 34885 ft | 564 kts | 82° |
| 2026-05-06 16:48 | 41.69434 | -174.14013 | 34879 ft | 564 kts | 82° |
| 2026-05-06 16:48 | 41.70389 | -174.03590 | 34877 ft | 563 kts | 82° |
| 2026-05-06 16:49 | 41.71333 | -173.93185 | 34875 ft | 563 kts | 82° |
| 2026-05-06 16:49 | 41.72268 | -173.82768 | 34876 ft | 563 kts | 82° |
| 2026-05-06 16:50 | 41.73192 | -173.72367 | 34878 ft | 563 kts | 82° |
| 2026-05-06 16:50 | 41.74101 | -173.62032 | 34877 ft | 562 kts | 82° |
| 2026-05-06 16:51 | 41.75006 | -173.51628 | 34878 ft | 562 kts | 82° |
| 2026-05-06 16:51 | 41.75902 | -173.41220 | 34876 ft | 562 kts | 83° |
| 2026-05-06 16:52 | 41.76788 | -173.30812 | 34883 ft | 562 kts | 83° |
| 2026-05-06 16:52 | 41.77665 | -173.20398 | 34880 ft | 562 kts | 83° |
| 2026-05-06 16:53 | 41.78531 | -173.09998 | 34879 ft | 561 kts | 83° |
| 2026-05-06 16:53 | 41.79387 | -172.99604 | 34884 ft | 561 kts | 83° |
| 2026-05-06 16:54 | 41.80229 | -172.89269 | 34889 ft | 561 kts | 83° |
| 2026-05-06 16:54 | 41.81066 | -172.78872 | 34892 ft | 561 kts | 83° |
| 2026-05-06 16:55 | 41.81895 | -172.68465 | 34892 ft | 561 kts | 83° |
| 2026-05-06 16:55 | 41.82713 | -172.58067 | 34893 ft | 561 kts | 84° |
| 2026-05-06 16:56 | 41.83522 | -172.47666 | 34892 ft | 561 kts | 84° |
| 2026-05-06 16:56 | 41.84321 | -172.37268 | 34918 ft | 560 kts | 84° |
| 2026-05-06 16:57 | 41.85112 | -172.26854 | 34919 ft | 560 kts | 84° |
| 2026-05-06 16:57 | 41.85887 | -172.16521 | 34913 ft | 560 kts | 84° |
| 2026-05-06 16:58 | 41.86658 | -172.06109 | 34916 ft | 560 kts | 84° |
| 2026-05-06 16:58 | 41.87420 | -171.95696 | 34916 ft | 561 kts | 84° |
| 2026-05-06 16:59 | 41.88174 | -171.85263 | 34914 ft | 561 kts | 84° |
| 2026-05-06 16:59 | 41.88918 | -171.74829 | 34915 ft | 561 kts | 84° |
| 2026-05-06 17:00 | 41.89653 | -171.64391 | 34917 ft | 562 kts | 85° |
| 2026-05-06 17:00 | 41.90380 | -171.53934 | 34918 ft | 562 kts | 85° |
| 2026-05-06 17:01 | 41.91092 | -171.43541 | 34922 ft | 563 kts | 85° |
| 2026-05-06 17:01 | 41.91802 | -171.33061 | 34919 ft | 563 kts | 85° |
| 2026-05-06 17:02 | 41.92501 | -171.22584 | 34924 ft | 563 kts | 85° |
| 2026-05-06 17:02 | 41.93192 | -171.12089 | 34918 ft | 563 kts | 85° |
| 2026-05-06 17:03 | 41.93872 | -171.01615 | 34919 ft | 563 kts | 85° |
| 2026-05-06 17:03 | 41.94540 | -170.91177 | 34920 ft | 563 kts | 85° |
| 2026-05-06 17:04 | 41.95200 | -170.80709 | 34915 ft | 562 kts | 85° |
| 2026-05-06 17:04 | 41.95852 | -170.70225 | 34916 ft | 562 kts | 86° |
| 2026-05-06 17:05 | 41.96492 | -170.59775 | 34923 ft | 561 kts | 86° |
| 2026-05-06 17:05 | 41.97125 | -170.49304 | 34916 ft | 561 kts | 86° |
| 2026-05-06 17:06 | 41.97748 | -170.38841 | 34916 ft | 561 kts | 86° |
| 2026-05-06 17:06 | 41.98356 | -170.28470 | 34913 ft | 560 kts | 86° |
| 2026-05-06 17:07 | 41.98961 | -170.18037 | 34911 ft | 560 kts | 86° |
| 2026-05-06 17:07 | 41.99561 | -170.07605 | 34908 ft | 560 kts | 86° |
| 2026-05-06 17:08 | 42.00137 | -169.97174 | 34913 ft | 560 kts | 87° |
| 2026-05-06 17:08 | 42.00582 | -169.86726 | 34907 ft | 560 kts | 88° |
| 2026-05-06 17:09 | 42.00979 | -169.76227 | 34909 ft | 560 kts | 88° |
| 2026-05-06 17:09 | 42.01385 | -169.65841 | 34906 ft | 560 kts | 88° |
| 2026-05-06 17:10 | 42.01802 | -169.55396 | 34905 ft | 560 kts | 88° |
| 2026-05-06 17:10 | 42.02215 | -169.44950 | 34903 ft | 560 kts | 88° |
| 2026-05-06 17:11 | 42.02621 | -169.34390 | 35174 ft | 564 kts | 88° |
| 2026-05-06 17:11 | 42.02819 | -169.29128 | 35524 ft | 562 kts | 88° |
| 2026-05-06 17:11 | 42.03011 | -169.23951 | 35876 ft | 561 kts | 89° |
| 2026-05-06 17:11 | 42.03201 | -169.18727 | 36203 ft | 560 kts | 89° |
| 2026-05-06 17:12 | 42.03392 | -169.13429 | 36507 ft | 559 kts | 89° |
| 2026-05-06 17:12 | 42.03574 | -169.08288 | 36766 ft | 559 kts | 89° |
| 2026-05-06 17:12 | 42.03758 | -169.03027 | 36854 ft | 562 kts | 89° |
| 2026-05-06 17:13 | 42.04121 | -168.92524 | 36893 ft | 561 kts | 89° |
| 2026-05-06 17:13 | 42.04474 | -168.82074 | 36886 ft | 557 kts | 89° |
| 2026-05-06 17:14 | 42.04814 | -168.71684 | 36895 ft | 554 kts | 89° |
| 2026-05-06 17:14 | 42.05143 | -168.61334 | 36900 ft | 553 kts | 89° |
| 2026-05-06 17:15 | 42.05463 | -168.50983 | 36905 ft | 554 kts | 89° |
| 2026-05-06 17:15 | 42.05773 | -168.40691 | 36903 ft | 555 kts | 89° |
| 2026-05-06 17:16 | 42.06076 | -168.30286 | 36903 ft | 557 kts | 89° |
| 2026-05-06 17:16 | 42.06372 | -168.19835 | 36897 ft | 559 kts | 90° |
| 2026-05-06 17:17 | 42.06659 | -168.09354 | 36897 ft | 560 kts | 90° |
| 2026-05-06 17:17 | 42.06936 | -167.98865 | 36892 ft | 561 kts | 90° |
| 2026-05-06 17:18 | 42.07205 | -167.88356 | 36897 ft | 562 kts | 90° |
| 2026-05-06 17:18 | 42.07463 | -167.77836 | 36897 ft | 563 kts | 90° |
| 2026-05-06 17:19 | 42.07713 | -167.67301 | 36897 ft | 563 kts | 90° |
| 2026-05-06 17:19 | 42.07951 | -167.56829 | 36893 ft | 563 kts | 90° |
| 2026-05-06 17:20 | 42.08182 | -167.46270 | 36898 ft | 563 kts | 90° |
| 2026-05-06 17:20 | 42.08403 | -167.35721 | 36890 ft | 563 kts | 90° |
| 2026-05-06 17:21 | 42.08614 | -167.25176 | 36888 ft | 563 kts | 90° |
| 2026-05-06 17:21 | 42.08814 | -167.14694 | 36885 ft | 563 kts | 90° |
| 2026-05-06 17:22 | 42.09006 | -167.04150 | 36888 ft | 563 kts | 90° |
| 2026-05-06 17:22 | 42.09159 | -166.95328 | 36890 ft | 562 kts | 90° |
| 2026-05-06 17:23 | 42.09332 | -166.84869 | 36890 ft | 562 kts | 90° |
| 2026-05-06 17:23 | 42.09496 | -166.74348 | 36879 ft | 562 kts | 90° |
| 2026-05-06 17:24 | 42.09650 | -166.63828 | 36888 ft | 561 kts | 90° |
| 2026-05-06 17:24 | 42.09795 | -166.53327 | 36879 ft | 560 kts | 90° |
| 2026-05-06 17:25 | 42.09930 | -166.42839 | 36888 ft | 560 kts | 90° |
| 2026-05-06 17:25 | 42.10055 | -166.32362 | 36875 ft | 559 kts | 90° |
| 2026-05-06 17:26 | 42.10169 | -166.21967 | 36883 ft | 559 kts | 90° |
| 2026-05-06 17:26 | 42.10275 | -166.11497 | 36885 ft | 558 kts | 90° |
| 2026-05-06 17:27 | 42.10372 | -166.01055 | 36878 ft | 558 kts | 90° |
| 2026-05-06 17:27 | 42.10459 | -165.90617 | 36881 ft | 557 kts | 90° |
| 2026-05-06 17:28 | 42.10536 | -165.80181 | 36879 ft | 557 kts | 90° |
| 2026-05-06 17:28 | 42.10604 | -165.69751 | 36879 ft | 556 kts | 90° |
| 2026-05-06 17:29 | 42.10662 | -165.59337 | 36878 ft | 556 kts | 90° |
| 2026-05-06 17:29 | 42.10711 | -165.48925 | 36877 ft | 555 kts | 90° |
| 2026-05-06 17:30 | 42.10750 | -165.38589 | 36882 ft | 555 kts | 90° |
| 2026-05-06 17:30 | 42.10780 | -165.28198 | 36884 ft | 555 kts | 90° |
| 2026-05-06 17:31 | 42.10801 | -165.17804 | 36878 ft | 555 kts | 90° |
| 2026-05-06 17:31 | 42.10813 | -165.07405 | 36883 ft | 555 kts | 90° |
| 2026-05-06 17:32 | 42.10815 | -164.97001 | 36874 ft | 555 kts | 90° |
| 2026-05-06 17:32 | 42.10808 | -164.86599 | 36878 ft | 555 kts | 90° |
| 2026-05-06 17:33 | 42.10791 | -164.76195 | 36873 ft | 555 kts | 90° |
| 2026-05-06 17:33 | 42.10765 | -164.65813 | 36874 ft | 554 kts | 89° |
| 2026-05-06 17:34 | 42.10729 | -164.55495 | 36874 ft | 554 kts | 89° |
| 2026-05-06 17:34 | 42.10685 | -164.45116 | 36870 ft | 554 kts | 89° |
| 2026-05-06 17:35 | 42.10630 | -164.34752 | 36874 ft | 553 kts | 89° |
| 2026-05-06 17:35 | 42.10567 | -164.24398 | 36871 ft | 553 kts | 89° |
| 2026-05-06 17:36 | 42.10455 | -164.08869 | 36866 ft | 552 kts | 89° |
| 2026-05-06 17:36 | 42.10368 | -163.98534 | 36862 ft | 552 kts | 89° |
| 2026-05-06 17:37 | 42.10273 | -163.88266 | 36869 ft | 552 kts | 89° |
| 2026-05-06 17:37 | 42.10169 | -163.77945 | 36858 ft | 551 kts | 89° |
| 2026-05-06 17:38 | 42.10055 | -163.67619 | 36850 ft | 551 kts | 89° |
| 2026-05-06 17:38 | 42.09931 | -163.57301 | 36852 ft | 550 kts | 89° |
| 2026-05-06 17:39 | 42.09799 | -163.47002 | 36852 ft | 550 kts | 89° |
| 2026-05-06 17:39 | 42.09658 | -163.36699 | 36854 ft | 549 kts | 89° |
| 2026-05-06 17:40 | 42.09507 | -163.26414 | 36849 ft | 549 kts | 89° |
| 2026-05-06 17:40 | 42.09348 | -163.16150 | 36839 ft | 548 kts | 88° |
| 2026-05-06 17:41 | 42.09181 | -163.05958 | 36855 ft | 547 kts | 88° |
| 2026-05-06 17:41 | 42.09004 | -162.95721 | 36840 ft | 547 kts | 88° |
| 2026-05-06 17:42 | 42.08818 | -162.85488 | 36839 ft | 546 kts | 88° |
| 2026-05-06 17:42 | 42.08623 | -162.75274 | 36838 ft | 545 kts | 88° |
| 2026-05-06 17:43 | 42.08420 | -162.65089 | 36834 ft | 544 kts | 88° |
| 2026-05-06 17:43 | 42.08208 | -162.54920 | 36837 ft | 542 kts | 88° |
| 2026-05-06 17:44 | 42.07989 | -162.44846 | 36831 ft | 541 kts | 88° |
| 2026-05-06 17:44 | 42.07760 | -162.34737 | 36829 ft | 540 kts | 88° |
| 2026-05-06 17:45 | 42.07523 | -162.24650 | 36823 ft | 538 kts | 88° |
| 2026-05-06 17:45 | 42.07279 | -162.14602 | 36826 ft | 537 kts | 88° |
| 2026-05-06 17:46 | 42.07026 | -162.04566 | 36823 ft | 536 kts | 87° |
| 2026-05-06 17:46 | 42.06764 | -161.94549 | 36824 ft | 534 kts | 87° |
| 2026-05-06 17:47 | 42.06495 | -161.84567 | 36825 ft | 533 kts | 87° |
| 2026-05-06 17:47 | 42.06218 | -161.74602 | 36821 ft | 532 kts | 87° |
| 2026-05-06 17:48 | 42.05933 | -161.64647 | 36822 ft | 532 kts | 87° |
| 2026-05-06 17:48 | 42.05641 | -161.54774 | 36821 ft | 531 kts | 87° |
| 2026-05-06 17:49 | 42.05340 | -161.44865 | 36817 ft | 530 kts | 87° |
| 2026-05-06 17:49 | 42.05030 | -161.34960 | 36815 ft | 529 kts | 87° |
| 2026-05-06 17:50 | 42.04713 | -161.25087 | 36815 ft | 528 kts | 87° |
| 2026-05-06 17:50 | 42.04388 | -161.15225 | 36812 ft | 527 kts | 87° |
| 2026-05-06 17:51 | 42.04055 | -161.05386 | 36813 ft | 526 kts | 87° |
| 2026-05-06 17:51 | 42.03715 | -160.95567 | 36811 ft | 525 kts | 87° |
| 2026-05-06 17:52 | 42.03366 | -160.85752 | 36811 ft | 525 kts | 87° |
| 2026-05-06 17:52 | 42.03010 | -160.75940 | 36802 ft | 524 kts | 87° |
| 2026-05-06 17:53 | 42.02645 | -160.66142 | 36803 ft | 524 kts | 87° |
| 2026-05-06 17:53 | 42.02275 | -160.56407 | 36814 ft | 525 kts | 87° |
| 2026-05-06 17:54 | 42.01895 | -160.46588 | 36809 ft | 525 kts | 87° |
| 2026-05-06 17:54 | 42.01506 | -160.36769 | 36815 ft | 526 kts | 87° |
| 2026-05-06 17:55 | 42.01112 | -160.26998 | 36815 ft | 526 kts | 87° |
| 2026-05-06 17:55 | 42.00710 | -160.17175 | 36810 ft | 527 kts | 87° |
| 2026-05-06 17:56 | 42.00303 | -160.07332 | 36804 ft | 527 kts | 87° |
| 2026-05-06 17:56 | 42.00021 | -159.97520 | 36793 ft | 521 kts | 81° |
| 2026-05-06 17:57 | 42.00395 | -159.87845 | 36812 ft | 517 kts | 79° |
| 2026-05-06 17:57 | 42.00843 | -159.78201 | 36810 ft | 516 kts | 79° |
| 2026-05-06 17:58 | 42.01269 | -159.68583 | 36803 ft | 514 kts | 79° |
| 2026-05-06 17:58 | 42.01662 | -159.58989 | 36804 ft | 512 kts | 80° |
| 2026-05-06 17:59 | 42.02037 | -159.49427 | 36794 ft | 510 kts | 80° |
| 2026-05-06 17:59 | 42.02400 | -159.39973 | 36800 ft | 509 kts | 80° |
| 2026-05-06 18:00 | 42.02759 | -159.30478 | 36801 ft | 507 kts | 80° |
| 2026-05-06 18:00 | 42.03110 | -159.21011 | 36805 ft | 506 kts | 80° |
| 2026-05-06 18:01 | 42.03452 | -159.11562 | 36805 ft | 505 kts | 81° |
| 2026-05-06 18:01 | 42.03787 | -159.02106 | 36803 ft | 505 kts | 81° |
| 2026-05-06 18:02 | 42.04114 | -158.92658 | 36810 ft | 505 kts | 81° |
| 2026-05-06 18:02 | 42.04431 | -158.83274 | 36801 ft | 505 kts | 81° |
| 2026-05-06 18:03 | 42.04742 | -158.73819 | 36805 ft | 506 kts | 81° |
| 2026-05-06 18:03 | 42.05046 | -158.64353 | 36803 ft | 506 kts | 82° |
| 2026-05-06 18:04 | 42.05342 | -158.54884 | 36807 ft | 506 kts | 82° |
| 2026-05-06 18:04 | 42.05631 | -158.45409 | 36807 ft | 506 kts | 82° |
| 2026-05-06 18:05 | 42.05909 | -158.36006 | 36813 ft | 506 kts | 82° |
| 2026-05-06 18:05 | 42.06182 | -158.26537 | 36810 ft | 506 kts | 83° |
| 2026-05-06 18:06 | 42.06447 | -158.17063 | 36811 ft | 506 kts | 83° |
| 2026-05-06 18:06 | 42.06703 | -158.07601 | 36809 ft | 505 kts | 83° |
| 2026-05-06 18:07 | 42.06952 | -157.98158 | 36812 ft | 504 kts | 84° |
| 2026-05-06 18:07 | 42.07192 | -157.88724 | 36808 ft | 504 kts | 84° |
| 2026-05-06 18:08 | 42.07425 | -157.79299 | 36819 ft | 503 kts | 84° |
| 2026-05-06 18:08 | 42.07648 | -157.69957 | 36812 ft | 503 kts | 85° |
| 2026-05-06 18:09 | 42.07865 | -157.60550 | 36815 ft | 502 kts | 85° |
| 2026-05-06 18:09 | 42.08074 | -157.51153 | 36824 ft | 502 kts | 85° |
| 2026-05-06 18:10 | 42.08275 | -157.41751 | 36826 ft | 502 kts | 85° |
| 2026-05-06 18:10 | 42.08469 | -157.32354 | 36814 ft | 502 kts | 86° |
| 2026-05-06 18:11 | 42.08624 | -157.24541 | 36816 ft | 503 kts | 86° |
| 2026-05-06 18:11 | 42.08804 | -157.15139 | 36813 ft | 502 kts | 86° |
| 2026-05-06 18:12 | 42.08976 | -157.05735 | 36819 ft | 502 kts | 86° |
| 2026-05-06 18:12 | 42.09140 | -156.96339 | 36824 ft | 502 kts | 87° |
| 2026-05-06 18:13 | 42.09296 | -156.86954 | 36821 ft | 501 kts | 87° |
| 2026-05-06 18:13 | 42.09444 | -156.77566 | 36837 ft | 501 kts | 87° |
| 2026-05-06 18:14 | 42.09585 | -156.68180 | 36827 ft | 501 kts | 87° |
| 2026-05-06 18:14 | 42.09718 | -156.58864 | 36827 ft | 501 kts | 87° |
| 2026-05-06 18:15 | 42.09843 | -156.49480 | 36824 ft | 501 kts | 88° |
| 2026-05-06 18:15 | 42.09961 | -156.40097 | 36828 ft | 500 kts | 88° |
| 2026-05-06 18:16 | 42.10072 | -156.30721 | 36830 ft | 501 kts | 88° |
| 2026-05-06 18:16 | 42.10173 | -156.21340 | 36840 ft | 501 kts | 89° |
| 2026-05-06 18:17 | 42.10269 | -156.11968 | 36836 ft | 501 kts | 89° |
| 2026-05-06 18:17 | 42.10357 | -156.02589 | 36838 ft | 501 kts | 89° |
| 2026-05-06 18:18 | 42.10437 | -155.93212 | 36840 ft | 501 kts | 90° |
| 2026-05-06 18:18 | 42.10509 | -155.83843 | 36846 ft | 500 kts | 90° |
| 2026-05-06 18:19 | 42.10573 | -155.74541 | 36845 ft | 500 kts | 90° |
| 2026-05-06 18:19 | 42.10630 | -155.65194 | 36847 ft | 499 kts | 90° |
| 2026-05-06 18:20 | 42.10679 | -155.55852 | 36846 ft | 498 kts | 91° |
| 2026-05-06 18:20 | 42.10721 | -155.46523 | 36850 ft | 497 kts | 91° |
| 2026-05-06 18:21 | 42.10755 | -155.37223 | 36852 ft | 496 kts | 91° |
| 2026-05-06 18:21 | 42.10781 | -155.27938 | 36857 ft | 495 kts | 91° |
| 2026-05-06 18:22 | 42.10800 | -155.18675 | 36859 ft | 494 kts | 92° |
| 2026-05-06 18:22 | 42.10811 | -155.09422 | 36858 ft | 494 kts | 92° |
| 2026-05-06 18:23 | 42.10814 | -155.00239 | 36859 ft | 493 kts | 92° |
| 2026-05-06 18:23 | 42.10811 | -154.91000 | 36863 ft | 493 kts | 92° |
| 2026-05-06 18:24 | 42.10800 | -154.81776 | 36862 ft | 492 kts | 93° |
| 2026-05-06 18:24 | 42.10781 | -154.72565 | 36865 ft | 491 kts | 93° |
| 2026-05-06 18:25 | 42.10757 | -154.63361 | 36864 ft | 491 kts | 93° |
| 2026-05-06 18:25 | 42.10723 | -154.54162 | 36869 ft | 490 kts | 94° |
| 2026-05-06 18:26 | 42.10683 | -154.44995 | 36868 ft | 490 kts | 94° |
| 2026-05-06 18:26 | 42.10635 | -154.35824 | 36873 ft | 489 kts | 94° |
| 2026-05-06 18:27 | 42.10581 | -154.26666 | 36874 ft | 489 kts | 94° |
| 2026-05-06 18:27 | 42.10520 | -154.17568 | 36871 ft | 489 kts | 95° |
| 2026-05-06 18:28 | 42.10451 | -154.08395 | 36881 ft | 489 kts | 95° |
| 2026-05-06 18:28 | 42.10375 | -153.99235 | 36881 ft | 489 kts | 95° |
| 2026-05-06 18:29 | 42.10292 | -153.90077 | 36881 ft | 489 kts | 95° |
| 2026-05-06 18:29 | 42.10201 | -153.80907 | 36880 ft | 489 kts | 96° |
| 2026-05-06 18:30 | 42.10103 | -153.71732 | 36886 ft | 490 kts | 96° |
| 2026-05-06 18:30 | 42.09997 | -153.62559 | 36885 ft | 489 kts | 96° |
| 2026-05-06 18:31 | 42.09884 | -153.53396 | 36884 ft | 489 kts | 96° |
| 2026-05-06 18:31 | 42.09764 | -153.44287 | 36885 ft | 489 kts | 96° |
| 2026-05-06 18:32 | 42.09637 | -153.35136 | 36894 ft | 488 kts | 96° |
| 2026-05-06 18:32 | 42.09502 | -153.25977 | 36896 ft | 488 kts | 96° |
| 2026-05-06 18:33 | 42.09362 | -153.16897 | 36891 ft | 487 kts | 96° |
| 2026-05-06 18:33 | 42.09213 | -153.07776 | 36895 ft | 487 kts | 97° |
| 2026-05-06 18:34 | 42.09057 | -152.98653 | 36895 ft | 486 kts | 97° |
| 2026-05-06 18:34 | 42.08895 | -152.89558 | 36901 ft | 486 kts | 97° |
| 2026-05-06 18:35 | 42.08725 | -152.80467 | 36896 ft | 486 kts | 97° |
| 2026-05-06 18:35 | 42.08548 | -152.71382 | 36899 ft | 485 kts | 97° |
| 2026-05-06 18:36 | 42.08365 | -152.62303 | 36898 ft | 485 kts | 97° |
| 2026-05-06 18:36 | 42.08174 | -152.53240 | 36896 ft | 484 kts | 97° |
| 2026-05-06 18:37 | 42.07977 | -152.44235 | 36901 ft | 484 kts | 97° |
| 2026-05-06 18:37 | 42.07773 | -152.35174 | 36901 ft | 484 kts | 98° |
| 2026-05-06 18:38 | 42.07561 | -152.26118 | 36895 ft | 483 kts | 98° |
| 2026-05-06 18:38 | 42.07342 | -152.17071 | 36895 ft | 483 kts | 98° |
| 2026-05-06 18:39 | 42.07117 | -152.08041 | 36900 ft | 483 kts | 98° |
| 2026-05-06 18:40 | 42.06767 | -151.94545 | 36898 ft | 482 kts | 98° |
| 2026-05-06 18:40 | 42.06525 | -151.85532 | 36899 ft | 482 kts | 98° |
| 2026-05-06 18:41 | 42.06275 | -151.76515 | 36899 ft | 481 kts | 99° |
| 2026-05-06 18:41 | 42.06019 | -151.67505 | 36900 ft | 481 kts | 99° |
| 2026-05-06 18:42 | 42.05757 | -151.58555 | 36896 ft | 480 kts | 99° |
| 2026-05-06 18:42 | 42.05487 | -151.49581 | 36911 ft | 480 kts | 99° |
| 2026-05-06 18:43 | 42.05210 | -151.40598 | 36907 ft | 480 kts | 99° |
| 2026-05-06 18:43 | 42.04926 | -151.31628 | 36899 ft | 480 kts | 99° |
| 2026-05-06 18:44 | 42.04636 | -151.22656 | 36905 ft | 480 kts | 99° |
| 2026-05-06 18:44 | 42.04338 | -151.13670 | 36905 ft | 480 kts | 99° |
| 2026-05-06 18:45 | 42.04035 | -151.04752 | 36901 ft | 480 kts | 99° |
| 2026-05-06 18:45 | 42.03723 | -150.95763 | 36905 ft | 480 kts | 99° |
| 2026-05-06 18:46 | 42.03405 | -150.86782 | 36905 ft | 481 kts | 99° |
| 2026-05-06 18:46 | 42.03079 | -150.77794 | 36906 ft | 481 kts | 99° |
| 2026-05-06 18:47 | 42.02748 | -150.68851 | 36904 ft | 481 kts | 99° |
| 2026-05-06 18:47 | 42.02408 | -150.59847 | 36906 ft | 482 kts | 99° |
| 2026-05-06 18:48 | 42.02061 | -150.50844 | 36906 ft | 482 kts | 100° |
| 2026-05-06 18:48 | 42.01707 | -150.41824 | 36905 ft | 483 kts | 100° |
| 2026-05-06 18:49 | 42.01349 | -150.32859 | 36904 ft | 483 kts | 100° |
| 2026-05-06 18:49 | 42.00982 | -150.23827 | 36906 ft | 484 kts | 100° |
| 2026-05-06 18:50 | 42.00609 | -150.14782 | 36901 ft | 484 kts | 100° |
| 2026-05-06 18:50 | 42.00234 | -150.05726 | 36907 ft | 484 kts | 100° |
| 2026-05-06 18:51 | 41.99829 | -149.96685 | 36902 ft | 484 kts | 101° |
| 2026-05-06 18:51 | 41.99312 | -149.87718 | 36901 ft | 483 kts | 101° |
| 2026-05-06 18:52 | 41.98763 | -149.78696 | 36898 ft | 484 kts | 101° |
| 2026-05-06 18:52 | 41.98226 | -149.69673 | 36910 ft | 484 kts | 101° |
| 2026-05-06 18:53 | 41.97695 | -149.60641 | 36893 ft | 485 kts | 101° |
| 2026-05-06 18:53 | 41.97162 | -149.51604 | 36895 ft | 484 kts | 101° |
| 2026-05-06 18:54 | 41.96621 | -149.42587 | 36902 ft | 484 kts | 102° |
| 2026-05-06 18:54 | 41.96075 | -149.33628 | 36912 ft | 484 kts | 102° |
| 2026-05-06 18:55 | 41.95518 | -149.24612 | 36913 ft | 484 kts | 102° |
| 2026-05-06 18:55 | 41.94953 | -149.15581 | 36913 ft | 485 kts | 102° |
| 2026-05-06 18:56 | 41.94380 | -149.06527 | 36912 ft | 486 kts | 102° |
| 2026-05-06 18:56 | 41.93803 | -148.97524 | 36911 ft | 487 kts | 102° |
| 2026-05-06 18:57 | 41.93215 | -148.88454 | 36914 ft | 487 kts | 102° |
| 2026-05-06 18:57 | 41.92618 | -148.79379 | 36916 ft | 488 kts | 102° |
| 2026-05-06 18:58 | 41.92014 | -148.70288 | 36920 ft | 488 kts | 102° |
| 2026-05-06 18:58 | 41.91405 | -148.61213 | 36923 ft | 488 kts | 102° |
| 2026-05-06 18:59 | 41.90788 | -148.52130 | 36915 ft | 488 kts | 102° |
| 2026-05-06 18:59 | 41.90162 | -148.43043 | 36919 ft | 488 kts | 102° |
| 2026-05-06 19:00 | 41.89534 | -148.34038 | 36921 ft | 488 kts | 103° |
| 2026-05-06 19:00 | 41.88895 | -148.24967 | 36925 ft | 487 kts | 103° |
| 2026-05-06 19:01 | 41.88250 | -148.15915 | 36940 ft | 487 kts | 103° |
| 2026-05-06 19:01 | 41.87709 | -148.08393 | 36935 ft | 487 kts | 103° |
| 2026-05-06 19:02 | 41.87052 | -147.99362 | 36942 ft | 486 kts | 104° |
| 2026-05-06 19:02 | 41.86390 | -147.90353 | 36933 ft | 484 kts | 104° |
| 2026-05-06 19:03 | 41.85722 | -147.81359 | 36928 ft | 482 kts | 104° |
| 2026-05-06 19:03 | 41.85051 | -147.72424 | 36946 ft | 480 kts | 104° |
| 2026-05-06 19:04 | 41.84379 | -147.63576 | 36941 ft | 479 kts | 105° |
| 2026-05-06 19:04 | 41.83699 | -147.54709 | 36941 ft | 477 kts | 105° |
| 2026-05-06 19:05 | 41.83015 | -147.45880 | 36954 ft | 475 kts | 105° |
| 2026-05-06 19:05 | 41.82326 | -147.37084 | 36956 ft | 473 kts | 105° |
| 2026-05-06 19:06 | 41.81632 | -147.28314 | 36956 ft | 472 kts | 105° |
| 2026-05-06 19:06 | 41.80933 | -147.19566 | 36963 ft | 471 kts | 105° |
| 2026-05-06 19:07 | 41.80232 | -147.10884 | 36970 ft | 471 kts | 105° |
| 2026-05-06 19:07 | 41.79520 | -147.02143 | 36972 ft | 472 kts | 106° |
| 2026-05-06 19:08 | 41.78801 | -146.93397 | 36979 ft | 473 kts | 105° |
| 2026-05-06 19:08 | 41.78073 | -146.84624 | 36974 ft | 474 kts | 105° |
| 2026-05-06 19:09 | 41.77337 | -146.75831 | 36986 ft | 475 kts | 105° |
| 2026-05-06 19:09 | 41.76593 | -146.67020 | 36989 ft | 476 kts | 106° |
| 2026-05-06 19:10 | 41.75849 | -146.58275 | 37010 ft | 476 kts | 106° |
| 2026-05-06 19:10 | 41.75090 | -146.49448 | 37003 ft | 476 kts | 106° |
| 2026-05-06 19:11 | 41.74326 | -146.40643 | 37010 ft | 476 kts | 106° |
| 2026-05-06 19:11 | 41.73556 | -146.31848 | 37014 ft | 475 kts | 106° |
| 2026-05-06 19:12 | 41.72780 | -146.23060 | 37014 ft | 475 kts | 106° |
| 2026-05-06 19:12 | 41.71997 | -146.14292 | 37022 ft | 474 kts | 106° |
| 2026-05-06 19:13 | 41.71209 | -146.05534 | 37033 ft | 473 kts | 106° |
| 2026-05-06 19:13 | 41.70421 | -145.96845 | 37026 ft | 473 kts | 107° |
| 2026-05-06 19:14 | 41.69621 | -145.88103 | 37035 ft | 473 kts | 107° |
| 2026-05-06 19:14 | 41.68815 | -145.79374 | 37040 ft | 472 kts | 107° |
| 2026-05-06 19:15 | 41.68002 | -145.70643 | 37050 ft | 473 kts | 107° |
| 2026-05-06 19:15 | 41.67182 | -145.61917 | 37059 ft | 473 kts | 107° |
| 2026-05-06 19:16 | 41.66353 | -145.53162 | 37055 ft | 474 kts | 107° |
| 2026-05-06 19:16 | 41.65524 | -145.44469 | 37066 ft | 475 kts | 107° |
| 2026-05-06 19:17 | 41.64680 | -145.35692 | 37070 ft | 475 kts | 107° |
| 2026-05-06 19:17 | 41.63829 | -145.26914 | 37073 ft | 476 kts | 107° |
| 2026-05-06 19:18 | 41.62976 | -145.18194 | 37076 ft | 476 kts | 108° |
| 2026-05-06 19:18 | 41.62111 | -145.09413 | 37082 ft | 477 kts | 108° |
| 2026-05-06 19:19 | 41.61238 | -145.00622 | 37083 ft | 477 kts | 108° |
| 2026-05-06 19:19 | 41.60358 | -144.91833 | 37090 ft | 477 kts | 108° |
| 2026-05-06 19:20 | 41.59470 | -144.83036 | 37098 ft | 477 kts | 108° |
| 2026-05-06 19:20 | 41.58582 | -144.74299 | 37107 ft | 477 kts | 108° |
| 2026-05-06 19:21 | 41.57681 | -144.65507 | 37110 ft | 477 kts | 108° |
| 2026-05-06 19:21 | 41.56774 | -144.56728 | 37113 ft | 477 kts | 108° |
| 2026-05-06 19:22 | 41.55860 | -144.47945 | 37116 ft | 477 kts | 108° |
| 2026-05-06 19:22 | 41.54939 | -144.39164 | 37118 ft | 477 kts | 108° |
| 2026-05-06 19:23 | 41.54017 | -144.30431 | 37121 ft | 477 kts | 108° |
| 2026-05-06 19:23 | 41.53083 | -144.21660 | 37126 ft | 477 kts | 108° |
| 2026-05-06 19:24 | 41.52141 | -144.12878 | 37147 ft | 477 kts | 108° |
| 2026-05-06 19:24 | 41.51194 | -144.04111 | 37142 ft | 477 kts | 108° |
| 2026-05-06 19:25 | 41.50247 | -143.95399 | 37143 ft | 477 kts | 108° |
| 2026-05-06 19:25 | 41.49287 | -143.86643 | 37146 ft | 477 kts | 108° |
| 2026-05-06 19:26 | 41.48322 | -143.77897 | 37147 ft | 476 kts | 108° |
| 2026-05-06 19:26 | 41.47350 | -143.69157 | 37145 ft | 476 kts | 108° |
| 2026-05-06 19:27 | 41.46377 | -143.60467 | 37155 ft | 475 kts | 108° |
| 2026-05-06 19:27 | 41.45394 | -143.51752 | 37160 ft | 475 kts | 108° |
| 2026-05-06 19:28 | 41.44405 | -143.43042 | 37158 ft | 475 kts | 108° |
| 2026-05-06 19:28 | 41.43408 | -143.34324 | 37162 ft | 475 kts | 108° |
| 2026-05-06 19:29 | 41.42403 | -143.25595 | 37168 ft | 476 kts | 108° |
| 2026-05-06 19:29 | 41.41398 | -143.16935 | 37173 ft | 477 kts | 108° |
| 2026-05-06 19:30 | 41.40380 | -143.08205 | 37190 ft | 478 kts | 108° |
| 2026-05-06 19:30 | 41.39351 | -142.99450 | 37185 ft | 479 kts | 108° |
| 2026-05-06 19:31 | 41.38313 | -142.90679 | 37188 ft | 479 kts | 108° |
| 2026-05-06 19:31 | 41.36742 | -142.77507 | 37196 ft | 481 kts | 108° |
| 2026-05-06 19:32 | 41.35684 | -142.68710 | 37200 ft | 482 kts | 108° |
| 2026-05-06 19:32 | 41.34618 | -142.59902 | 37203 ft | 483 kts | 108° |
| 2026-05-06 19:33 | 41.33549 | -142.51135 | 37217 ft | 483 kts | 108° |
| 2026-05-06 19:33 | 41.32463 | -142.42283 | 37217 ft | 484 kts | 108° |
| 2026-05-06 19:34 | 41.31370 | -142.33431 | 37225 ft | 485 kts | 108° |
| 2026-05-06 19:34 | 41.30269 | -142.24566 | 37222 ft | 486 kts | 108° |
| 2026-05-06 19:35 | 41.29159 | -142.15694 | 37227 ft | 487 kts | 108° |
| 2026-05-06 19:35 | 41.28039 | -142.06799 | 37230 ft | 487 kts | 108° |
| 2026-05-06 19:36 | 41.26921 | -141.97974 | 37232 ft | 487 kts | 107° |
| 2026-05-06 19:36 | 41.25788 | -141.89089 | 37232 ft | 488 kts | 108° |
| 2026-05-06 19:37 | 41.24648 | -141.80205 | 37240 ft | 488 kts | 108° |
| 2026-05-06 19:37 | 41.23694 | -141.72813 | 37243 ft | 488 kts | 108° |
| 2026-05-06 19:38 | 41.22344 | -141.62424 | 37241 ft | 488 kts | 108° |
| 2026-05-06 19:38 | 41.21181 | -141.53528 | 37246 ft | 489 kts | 108° |
| 2026-05-06 19:39 | 41.20009 | -141.44626 | 37248 ft | 489 kts | 108° |
| 2026-05-06 19:39 | 41.18838 | -141.35784 | 37251 ft | 489 kts | 108° |
| 2026-05-06 19:40 | 41.17652 | -141.26876 | 37251 ft | 490 kts | 108° |
| 2026-05-06 19:40 | 41.16458 | -141.17970 | 37254 ft | 490 kts | 108° |
| 2026-05-06 19:41 | 41.15255 | -141.09052 | 37261 ft | 491 kts | 108° |
| 2026-05-06 19:41 | 41.14048 | -141.00147 | 37262 ft | 491 kts | 108° |
| 2026-05-06 19:42 | 41.12831 | -140.91229 | 37271 ft | 491 kts | 108° |
| 2026-05-06 19:42 | 41.11617 | -140.82381 | 37267 ft | 490 kts | 108° |
| 2026-05-06 19:43 | 41.10388 | -140.73482 | 37270 ft | 490 kts | 108° |
| 2026-05-06 19:43 | 41.09155 | -140.64607 | 37269 ft | 490 kts | 108° |
| 2026-05-06 19:44 | 41.07915 | -140.55724 | 37274 ft | 489 kts | 108° |
| 2026-05-06 19:44 | 41.06670 | -140.46857 | 37277 ft | 489 kts | 108° |
| 2026-05-06 19:45 | 41.05420 | -140.38007 | 37278 ft | 488 kts | 108° |
| 2026-05-06 19:45 | 41.04164 | -140.29159 | 37273 ft | 488 kts | 108° |
| 2026-05-06 19:46 | 41.02912 | -140.20378 | 37277 ft | 488 kts | 107° |
| 2026-05-06 19:46 | 41.01649 | -140.11545 | 37276 ft | 488 kts | 107° |
| 2026-05-06 19:47 | 41.00378 | -140.02707 | 37279 ft | 488 kts | 108° |
| 2026-05-06 19:47 | 40.99066 | -139.93898 | 37284 ft | 487 kts | 108° |
| 2026-05-06 19:48 | 40.97695 | -139.85109 | 37289 ft | 487 kts | 108° |
| 2026-05-06 19:48 | 40.96333 | -139.76374 | 37288 ft | 488 kts | 108° |
| 2026-05-06 19:49 | 40.94969 | -139.67585 | 37291 ft | 488 kts | 108° |
| 2026-05-06 19:49 | 40.93604 | -139.58790 | 37298 ft | 488 kts | 108° |
| 2026-05-06 19:50 | 40.92231 | -139.49985 | 37301 ft | 488 kts | 108° |
| 2026-05-06 19:50 | 40.90853 | -139.41199 | 37303 ft | 488 kts | 108° |
| 2026-05-06 19:51 | 40.89468 | -139.32422 | 37303 ft | 488 kts | 108° |
| 2026-05-06 19:51 | 40.88077 | -139.23649 | 37302 ft | 488 kts | 107° |
| 2026-05-06 19:52 | 40.86688 | -139.14942 | 37312 ft | 487 kts | 107° |
| 2026-05-06 19:52 | 40.85285 | -139.06182 | 37310 ft | 487 kts | 107° |
| 2026-05-06 19:53 | 40.83873 | -138.97418 | 37312 ft | 487 kts | 107° |
| 2026-05-06 19:53 | 40.82456 | -138.88663 | 37311 ft | 487 kts | 107° |
| 2026-05-06 19:54 | 40.81032 | -138.79913 | 37314 ft | 487 kts | 107° |
| 2026-05-06 19:54 | 40.79844 | -138.72648 | 37317 ft | 487 kts | 107° |
| 2026-05-06 19:55 | 40.78409 | -138.63912 | 37318 ft | 487 kts | 107° |
| 2026-05-06 19:55 | 40.76967 | -138.55175 | 37317 ft | 487 kts | 107° |
| 2026-05-06 19:56 | 40.75521 | -138.46456 | 37322 ft | 486 kts | 107° |
| 2026-05-06 19:56 | 40.74068 | -138.37738 | 37320 ft | 486 kts | 107° |
| 2026-05-06 19:57 | 40.72618 | -138.29082 | 37321 ft | 486 kts | 107° |
| 2026-05-06 19:57 | 40.71153 | -138.20382 | 37321 ft | 486 kts | 107° |
| 2026-05-06 19:58 | 40.69683 | -138.11695 | 37324 ft | 486 kts | 107° |
| 2026-05-06 19:58 | 40.68206 | -138.03009 | 37323 ft | 486 kts | 106° |
| 2026-05-06 19:59 | 40.66723 | -137.94324 | 37329 ft | 486 kts | 106° |
| 2026-05-06 19:59 | 40.65230 | -137.85631 | 37333 ft | 486 kts | 106° |
| 2026-05-06 20:00 | 40.63741 | -137.76997 | 37331 ft | 486 kts | 106° |
| 2026-05-06 20:00 | 40.62235 | -137.68307 | 37333 ft | 486 kts | 106° |
| 2026-05-06 20:01 | 40.60735 | -137.59688 | 37337 ft | 486 kts | 106° |
| 2026-05-06 20:01 | 40.59218 | -137.51017 | 37336 ft | 486 kts | 106° |
| 2026-05-06 20:02 | 40.57694 | -137.42350 | 37339 ft | 486 kts | 106° |
| 2026-05-06 20:02 | 40.56163 | -137.33679 | 37339 ft | 486 kts | 106° |
| 2026-05-06 20:03 | 40.54625 | -137.25012 | 37342 ft | 486 kts | 106° |
| 2026-05-06 20:03 | 40.53083 | -137.16359 | 37345 ft | 486 kts | 106° |
| 2026-05-06 20:04 | 40.51535 | -137.07713 | 37337 ft | 486 kts | 106° |
| 2026-05-06 20:04 | 40.49988 | -136.99116 | 37342 ft | 486 kts | 106° |
| 2026-05-06 20:05 | 40.48427 | -136.90479 | 37348 ft | 486 kts | 106° |
| 2026-05-06 20:05 | 40.46858 | -136.81841 | 37343 ft | 486 kts | 106° |
| 2026-05-06 20:06 | 40.45282 | -136.73202 | 37346 ft | 486 kts | 106° |
| 2026-05-06 20:06 | 40.43702 | -136.64578 | 37349 ft | 486 kts | 106° |
| 2026-05-06 20:07 | 40.42112 | -136.55938 | 37342 ft | 486 kts | 106° |
| 2026-05-06 20:07 | 40.40528 | -136.47371 | 37344 ft | 486 kts | 106° |
| 2026-05-06 20:08 | 40.38926 | -136.38747 | 37346 ft | 486 kts | 106° |
| 2026-05-06 20:08 | 40.37319 | -136.30128 | 37343 ft | 486 kts | 106° |
| 2026-05-06 20:09 | 40.35704 | -136.21510 | 37344 ft | 486 kts | 106° |
| 2026-05-06 20:09 | 40.34083 | -136.12901 | 37345 ft | 486 kts | 106° |
| 2026-05-06 20:10 | 40.32457 | -136.04299 | 37348 ft | 486 kts | 106° |
| 2026-05-06 20:10 | 40.30824 | -135.95700 | 37347 ft | 486 kts | 106° |
| 2026-05-06 20:11 | 40.29198 | -135.87173 | 37357 ft | 486 kts | 106° |
| 2026-05-06 20:11 | 40.27553 | -135.78584 | 37358 ft | 485 kts | 106° |
| 2026-05-06 20:12 | 40.25903 | -135.70003 | 37357 ft | 485 kts | 106° |
| 2026-05-06 20:12 | 40.24248 | -135.61437 | 37356 ft | 485 kts | 106° |
| 2026-05-06 20:13 | 40.22588 | -135.52882 | 37354 ft | 485 kts | 106° |
| 2026-05-06 20:13 | 40.20921 | -135.44326 | 37352 ft | 485 kts | 106° |
| 2026-05-06 20:14 | 40.19249 | -135.35786 | 37354 ft | 485 kts | 106° |
| 2026-05-06 20:14 | 40.17578 | -135.27285 | 37352 ft | 485 kts | 106° |
| 2026-05-06 20:15 | 40.15894 | -135.18747 | 37359 ft | 485 kts | 106° |
| 2026-05-06 20:15 | 40.14203 | -135.10214 | 37352 ft | 485 kts | 106° |
| 2026-05-06 20:16 | 40.12505 | -135.01685 | 37360 ft | 484 kts | 106° |
| 2026-05-06 20:16 | 40.10801 | -134.93160 | 37354 ft | 484 kts | 106° |
| 2026-05-06 20:17 | 40.09095 | -134.84658 | 37351 ft | 484 kts | 106° |
| 2026-05-06 20:17 | 40.07391 | -134.76202 | 37362 ft | 484 kts | 106° |
| 2026-05-06 20:18 | 40.05670 | -134.67698 | 37356 ft | 484 kts | 106° |
| 2026-05-06 20:18 | 40.03946 | -134.59210 | 37353 ft | 484 kts | 106° |
| 2026-05-06 20:19 | 40.02214 | -134.50719 | 37355 ft | 484 kts | 106° |
| 2026-05-06 20:19 | 40.00477 | -134.42240 | 37353 ft | 484 kts | 106° |
| 2026-05-06 20:20 | 39.98734 | -134.33769 | 37353 ft | 484 kts | 106° |
| 2026-05-06 20:20 | 39.96994 | -134.25342 | 37358 ft | 484 kts | 106° |
| 2026-05-06 20:21 | 39.95238 | -134.16872 | 37361 ft | 484 kts | 106° |
| 2026-05-06 20:21 | 39.93476 | -134.08408 | 37355 ft | 484 kts | 106° |
| 2026-05-06 20:22 | 39.91708 | -133.99952 | 37352 ft | 484 kts | 106° |
| 2026-05-06 20:22 | 39.89937 | -133.91511 | 37357 ft | 484 kts | 106° |
| 2026-05-06 20:23 | 39.88159 | -133.83068 | 37356 ft | 484 kts | 106° |
| 2026-05-06 20:23 | 39.86366 | -133.74591 | 37357 ft | 484 kts | 106° |
| 2026-05-06 20:24 | 39.84572 | -133.66143 | 37354 ft | 484 kts | 106° |
| 2026-05-06 20:24 | 39.82785 | -133.57763 | 37362 ft | 484 kts | 106° |
| 2026-05-06 20:25 | 39.80983 | -133.49341 | 37358 ft | 484 kts | 106° |
| 2026-05-06 20:25 | 39.79173 | -133.40918 | 37361 ft | 484 kts | 106° |
| 2026-05-06 20:26 | 39.77348 | -133.32455 | 37357 ft | 484 kts | 106° |
| 2026-05-06 20:26 | 39.75524 | -133.24030 | 37356 ft | 484 kts | 106° |
| 2026-05-06 20:27 | 39.73692 | -133.15605 | 37357 ft | 484 kts | 106° |
| 2026-05-06 20:27 | 39.71855 | -133.07185 | 37353 ft | 484 kts | 106° |
| 2026-05-06 20:28 | 39.70013 | -132.98776 | 37353 ft | 484 kts | 106° |
| 2026-05-06 20:28 | 39.68175 | -132.90414 | 37355 ft | 484 kts | 106° |
| 2026-05-06 20:29 | 39.66321 | -132.82017 | 37352 ft | 484 kts | 106° |
| 2026-05-06 20:29 | 39.64462 | -132.73625 | 37353 ft | 484 kts | 106° |
| 2026-05-06 20:30 | 39.61660 | -132.61036 | 37352 ft | 484 kts | 106° |
| 2026-05-06 20:31 | 39.59794 | -132.52692 | 37353 ft | 483 kts | 106° |
| 2026-05-06 20:31 | 39.57914 | -132.44320 | 37353 ft | 483 kts | 106° |
| 2026-05-06 20:32 | 39.56025 | -132.35937 | 37350 ft | 483 kts | 106° |
| 2026-05-06 20:32 | 39.54148 | -132.27635 | 37351 ft | 483 kts | 106° |
| 2026-05-06 20:33 | 39.52250 | -132.19276 | 37358 ft | 483 kts | 106° |
| 2026-05-06 20:33 | 39.50348 | -132.10924 | 37355 ft | 483 kts | 107° |
| 2026-05-06 20:34 | 39.48436 | -132.02565 | 37353 ft | 483 kts | 107° |
| 2026-05-06 20:34 | 39.46522 | -131.94224 | 37352 ft | 483 kts | 107° |
| 2026-05-06 20:35 | 39.44601 | -131.85885 | 37351 ft | 483 kts | 107° |
| 2026-05-06 20:35 | 39.42689 | -131.77614 | 37346 ft | 483 kts | 107° |
| 2026-05-06 20:36 | 39.40759 | -131.69299 | 37345 ft | 483 kts | 107° |
| 2026-05-06 20:36 | 39.38821 | -131.60975 | 37344 ft | 483 kts | 108° |
| 2026-05-06 20:37 | 39.36876 | -131.52652 | 37345 ft | 483 kts | 108° |
| 2026-05-06 20:37 | 39.34925 | -131.44333 | 37345 ft | 483 kts | 108° |
| 2026-05-06 20:38 | 39.32971 | -131.36030 | 37344 ft | 483 kts | 108° |
| 2026-05-06 20:38 | 39.31009 | -131.27727 | 37344 ft | 483 kts | 108° |
| 2026-05-06 20:39 | 39.29042 | -131.19425 | 37340 ft | 483 kts | 108° |
| 2026-05-06 20:39 | 39.27082 | -131.11188 | 37336 ft | 483 kts | 109° |
| 2026-05-06 20:40 | 39.25105 | -131.02906 | 37335 ft | 483 kts | 109° |
| 2026-05-06 20:40 | 39.23123 | -130.94633 | 37337 ft | 482 kts | 109° |
| 2026-05-06 20:41 | 39.21136 | -130.86368 | 37335 ft | 482 kts | 109° |
| 2026-05-06 20:41 | 39.19144 | -130.78111 | 37336 ft | 482 kts | 109° |
| 2026-05-06 20:42 | 39.17147 | -130.69858 | 37330 ft | 482 kts | 109° |
| 2026-05-06 20:42 | 39.15482 | -130.62999 | 37330 ft | 482 kts | 109° |
| 2026-05-06 20:43 | 39.13146 | -130.53411 | 37332 ft | 482 kts | 110° |
| 2026-05-06 20:43 | 39.11458 | -130.46501 | 37332 ft | 482 kts | 110° |
| 2026-05-06 20:44 | 39.09452 | -130.38318 | 37328 ft | 482 kts | 110° |
| 2026-05-06 20:44 | 39.07427 | -130.30083 | 37324 ft | 482 kts | 110° |
| 2026-05-06 20:45 | 39.05400 | -130.21858 | 37327 ft | 482 kts | 110° |
| 2026-05-06 20:45 | 39.03371 | -130.13644 | 37327 ft | 482 kts | 110° |
| 2026-05-06 20:46 | 39.01338 | -130.05427 | 37322 ft | 482 kts | 110° |
| 2026-05-06 20:46 | 38.99454 | -129.97171 | 37316 ft | 482 kts | 105° |
| 2026-05-06 20:47 | 38.98045 | -129.88741 | 37327 ft | 483 kts | 104° |
| 2026-05-06 20:47 | 38.96685 | -129.80350 | 37318 ft | 483 kts | 104° |
| 2026-05-06 20:48 | 38.95298 | -129.71896 | 37317 ft | 483 kts | 104° |
| 2026-05-06 20:48 | 38.93894 | -129.63458 | 37323 ft | 483 kts | 104° |
| 2026-05-06 20:49 | 38.92478 | -129.55019 | 37314 ft | 483 kts | 104° |
| 2026-05-06 20:49 | 38.91066 | -129.46650 | 37316 ft | 483 kts | 104° |
| 2026-05-06 20:50 | 38.89640 | -129.38228 | 37308 ft | 482 kts | 104° |
| 2026-05-06 20:50 | 38.88209 | -129.29813 | 37309 ft | 482 kts | 104° |
| 2026-05-06 20:51 | 38.86773 | -129.21410 | 37315 ft | 482 kts | 104° |
| 2026-05-06 20:51 | 38.85328 | -129.12993 | 37309 ft | 482 kts | 104° |
| 2026-05-06 20:52 | 38.83881 | -129.04603 | 37302 ft | 482 kts | 104° |
| 2026-05-06 20:52 | 38.82428 | -128.96213 | 37305 ft | 482 kts | 104° |
| 2026-05-06 20:53 | 38.80971 | -128.87836 | 37309 ft | 481 kts | 104° |
| 2026-05-06 20:53 | 38.79516 | -128.79514 | 37308 ft | 481 kts | 104° |
| 2026-05-06 20:54 | 38.78046 | -128.71141 | 37305 ft | 481 kts | 104° |
| 2026-05-06 20:54 | 38.76568 | -128.62758 | 37295 ft | 481 kts | 104° |
| 2026-05-06 20:55 | 38.75086 | -128.54391 | 37298 ft | 481 kts | 104° |
| 2026-05-06 20:55 | 38.73598 | -128.46029 | 37302 ft | 481 kts | 104° |
| 2026-05-06 20:56 | 38.72105 | -128.37673 | 37295 ft | 481 kts | 105° |
| 2026-05-06 20:56 | 38.70615 | -128.29372 | 37304 ft | 481 kts | 105° |
| 2026-05-06 20:57 | 38.69109 | -128.21017 | 37301 ft | 481 kts | 105° |
| 2026-05-06 20:57 | 38.67597 | -128.12664 | 37298 ft | 481 kts | 105° |
| 2026-05-06 20:58 | 38.66080 | -128.04320 | 37296 ft | 481 kts | 105° |
| 2026-05-06 20:58 | 38.64557 | -127.95983 | 37285 ft | 481 kts | 105° |
| 2026-05-06 20:59 | 38.63037 | -127.87690 | 37289 ft | 481 kts | 105° |
| 2026-05-06 20:59 | 38.61503 | -127.79360 | 37284 ft | 481 kts | 105° |
| 2026-05-06 21:00 | 38.59961 | -127.71024 | 37294 ft | 481 kts | 105° |
| 2026-05-06 21:00 | 38.58417 | -127.62704 | 37283 ft | 481 kts | 105° |
| 2026-05-06 21:01 | 38.56862 | -127.54366 | 37288 ft | 482 kts | 105° |
| 2026-05-06 21:01 | 38.55304 | -127.46042 | 37282 ft | 482 kts | 105° |
| 2026-05-06 21:02 | 38.53751 | -127.37774 | 37271 ft | 482 kts | 105° |
| 2026-05-06 21:02 | 38.52180 | -127.29444 | 37277 ft | 482 kts | 105° |
| 2026-05-06 21:03 | 38.50606 | -127.21126 | 37280 ft | 482 kts | 105° |
| 2026-05-06 21:03 | 38.49031 | -127.12816 | 37274 ft | 482 kts | 105° |
| 2026-05-06 21:04 | 38.47451 | -127.04515 | 37270 ft | 481 kts | 105° |
| 2026-05-06 21:04 | 38.45573 | -126.96334 | 37264 ft | 479 kts | 112° |
| 2026-05-06 21:05 | 38.43128 | -126.88416 | 37287 ft | 479 kts | 114° |
| 2026-05-06 21:05 | 38.40672 | -126.80577 | 37288 ft | 479 kts | 113° |
| 2026-05-06 21:06 | 38.38227 | -126.72647 | 37271 ft | 480 kts | 113° |
| 2026-05-06 21:06 | 38.35802 | -126.64716 | 37282 ft | 480 kts | 113° |
| 2026-05-06 21:07 | 38.33373 | -126.56784 | 37271 ft | 480 kts | 113° |
| 2026-05-06 21:07 | 38.30955 | -126.48913 | 37265 ft | 480 kts | 113° |
| 2026-05-06 21:08 | 38.28516 | -126.41001 | 37254 ft | 480 kts | 113° |
| 2026-05-06 21:08 | 38.26070 | -126.33093 | 37260 ft | 480 kts | 113° |
| 2026-05-06 21:09 | 38.23613 | -126.25174 | 37267 ft | 480 kts | 113° |
| 2026-05-06 21:09 | 38.21154 | -126.17266 | 37269 ft | 480 kts | 113° |
| 2026-05-06 21:10 | 38.18695 | -126.09375 | 37263 ft | 480 kts | 112° |
| 2026-05-06 21:10 | 38.16240 | -126.01523 | 37266 ft | 480 kts | 112° |
| 2026-05-06 21:11 | 38.13767 | -125.93634 | 37264 ft | 480 kts | 113° |
| 2026-05-06 21:11 | 38.11287 | -125.85744 | 37256 ft | 481 kts | 112° |
| 2026-05-06 21:12 | 38.08803 | -125.77857 | 37257 ft | 481 kts | 112° |
| 2026-05-06 21:12 | 38.06314 | -125.69974 | 37255 ft | 481 kts | 112° |
| 2026-05-06 21:13 | 38.03824 | -125.62098 | 37256 ft | 481 kts | 112° |
| 2026-05-06 21:13 | 38.01330 | -125.54226 | 37253 ft | 481 kts | 112° |
| 2026-05-06 21:14 | 37.98960 | -125.46365 | 37277 ft | 479 kts | 110° |
| 2026-05-06 21:14 | 37.96796 | -125.38367 | 37256 ft | 480 kts | 109° |
| 2026-05-06 21:15 | 37.94655 | -125.30355 | 37249 ft | 480 kts | 109° |
| 2026-05-06 21:15 | 37.92503 | -125.22348 | 37249 ft | 480 kts | 109° |
| 2026-05-06 21:16 | 37.90339 | -125.14346 | 37249 ft | 480 kts | 109° |
| 2026-05-06 21:16 | 37.88165 | -125.06344 | 37252 ft | 480 kts | 109° |
| 2026-05-06 21:17 | 37.85988 | -124.98359 | 37246 ft | 480 kts | 109° |
| 2026-05-06 21:17 | 37.83805 | -124.90371 | 37247 ft | 480 kts | 109° |
| 2026-05-06 21:18 | 37.81617 | -124.82391 | 37242 ft | 480 kts | 109° |
| 2026-05-06 21:18 | 37.79425 | -124.74419 | 37247 ft | 480 kts | 109° |
| 2026-05-06 21:19 | 37.77241 | -124.66502 | 37240 ft | 480 kts | 109° |
| 2026-05-06 21:19 | 37.75036 | -124.58528 | 37242 ft | 480 kts | 109° |
| 2026-05-06 21:20 | 37.72829 | -124.50576 | 37240 ft | 480 kts | 109° |
| 2026-05-06 21:20 | 37.70618 | -124.42629 | 37237 ft | 480 kts | 109° |
| 2026-05-06 21:21 | 37.68399 | -124.34682 | 37239 ft | 480 kts | 109° |
| 2026-05-06 21:21 | 37.66173 | -124.26732 | 37233 ft | 480 kts | 109° |
| 2026-05-06 21:22 | 37.63945 | -124.18796 | 37238 ft | 480 kts | 109° |
| 2026-05-06 21:22 | 37.61725 | -124.10913 | 37230 ft | 480 kts | 109° |
| 2026-05-06 21:23 | 37.59485 | -124.02984 | 37235 ft | 479 kts | 109° |
| 2026-05-06 21:23 | 37.57242 | -123.95068 | 37230 ft | 479 kts | 109° |
| 2026-05-06 21:24 | 37.54991 | -123.87147 | 37227 ft | 479 kts | 109° |
| 2026-05-06 21:24 | 37.52738 | -123.79240 | 37222 ft | 479 kts | 109° |
| 2026-05-06 21:25 | 37.50483 | -123.71348 | 37223 ft | 479 kts | 109° |
| 2026-05-06 21:25 | 37.48220 | -123.63454 | 37222 ft | 479 kts | 109° |
| 2026-05-06 21:26 | 37.45970 | -123.55623 | 37221 ft | 478 kts | 109° |
| 2026-05-06 21:26 | 37.43698 | -123.47744 | 37219 ft | 478 kts | 109° |
| 2026-05-06 21:27 | 37.41427 | -123.39885 | 37214 ft | 478 kts | 109° |
| 2026-05-06 21:27 | 37.39147 | -123.32019 | 37221 ft | 478 kts | 109° |
| 2026-05-06 21:28 | 37.36867 | -123.24172 | 37218 ft | 478 kts | 109° |
| 2026-05-06 21:28 | 37.34597 | -123.16380 | 37216 ft | 478 kts | 109° |
| 2026-05-06 21:29 | 37.32310 | -123.08545 | 37211 ft | 477 kts | 109° |
| 2026-05-06 21:29 | 37.30022 | -123.00716 | 37210 ft | 477 kts | 109° |
| 2026-05-06 21:30 | 37.27728 | -122.92893 | 37204 ft | 477 kts | 109° |
| 2026-05-06 21:30 | 37.25081 | -122.85253 | 37207 ft | 479 kts | 117° |
| 2026-05-06 21:31 | 37.21425 | -122.78254 | 37192 ft | 480 kts | 124° |
| 2026-05-06 21:31 | 37.17558 | -122.71480 | 37199 ft | 480 kts | 124° |
| 2026-05-06 21:32 | 37.13687 | -122.64651 | 37196 ft | 480 kts | 123° |
| 2026-05-06 21:32 | 37.08547 | -122.55485 | 37196 ft | 481 kts | 123° |
| 2026-05-06 21:33 | 37.04737 | -122.48679 | 37187 ft | 481 kts | 123° |
| 2026-05-06 21:33 | 37.00896 | -122.41832 | 37191 ft | 480 kts | 123° |
| 2026-05-06 21:34 | 36.97051 | -122.34998 | 37183 ft | 480 kts | 123° |
| 2026-05-06 21:34 | 36.93203 | -122.28171 | 37184 ft | 480 kts | 123° |
| 2026-05-06 21:35 | 36.89353 | -122.21356 | 37179 ft | 480 kts | 123° |
| 2026-05-06 21:35 | 36.85500 | -122.14549 | 37175 ft | 479 kts | 123° |
| 2026-05-06 21:36 | 36.81646 | -122.07754 | 37171 ft | 479 kts | 123° |
| 2026-05-06 21:36 | 36.77814 | -122.01012 | 37171 ft | 479 kts | 123° |
| 2026-05-06 21:37 | 36.73959 | -121.94243 | 37171 ft | 478 kts | 123° |
| 2026-05-06 21:37 | 36.70104 | -121.87485 | 37166 ft | 478 kts | 123° |
| 2026-05-06 21:38 | 36.66244 | -121.80734 | 37168 ft | 478 kts | 123° |
| 2026-05-06 21:38 | 36.62381 | -121.73990 | 37164 ft | 478 kts | 123° |
| 2026-05-06 21:39 | 36.58515 | -121.67255 | 37144 ft | 478 kts | 123° |
| 2026-05-06 21:39 | 36.54645 | -121.60525 | 37158 ft | 478 kts | 123° |
| 2026-05-06 21:40 | 36.50771 | -121.53802 | 37149 ft | 478 kts | 123° |
| 2026-05-06 21:40 | 36.46892 | -121.47085 | 37150 ft | 478 kts | 123° |
| 2026-05-06 21:41 | 36.43009 | -121.40373 | 37143 ft | 478 kts | 123° |
| 2026-05-06 21:41 | 36.39126 | -121.33675 | 37131 ft | 478 kts | 123° |
| 2026-05-06 21:42 | 36.35259 | -121.27017 | 37136 ft | 477 kts | 123° |
| 2026-05-06 21:42 | 36.31374 | -121.20341 | 37129 ft | 477 kts | 123° |
| 2026-05-06 21:43 | 36.27488 | -121.13675 | 37119 ft | 477 kts | 123° |
| 2026-05-06 21:43 | 36.23596 | -121.07012 | 37123 ft | 476 kts | 123° |
| 2026-05-06 21:44 | 36.19705 | -121.00366 | 37125 ft | 477 kts | 123° |
| 2026-05-06 21:44 | 36.15807 | -120.93718 | 37125 ft | 477 kts | 123° |
| 2026-05-06 21:45 | 36.11907 | -120.87079 | 37125 ft | 477 kts | 123° |
| 2026-05-06 21:45 | 36.08003 | -120.80449 | 37132 ft | 477 kts | 123° |
| 2026-05-06 21:46 | 36.04120 | -120.73864 | 37131 ft | 477 kts | 123° |
| 2026-05-06 21:46 | 36.00210 | -120.67246 | 37128 ft | 477 kts | 123° |
| 2026-05-06 21:47 | 35.96290 | -120.60623 | 37145 ft | 477 kts | 123° |
| 2026-05-06 21:47 | 35.92370 | -120.54013 | 37147 ft | 477 kts | 123° |
| 2026-05-06 21:48 | 35.88450 | -120.47414 | 37147 ft | 477 kts | 123° |
| 2026-05-06 21:48 | 35.84547 | -120.40856 | 37153 ft | 477 kts | 123° |
| 2026-05-06 21:49 | 35.80620 | -120.34266 | 37153 ft | 476 kts | 123° |
| 2026-05-06 21:49 | 35.76700 | -120.27698 | 37147 ft | 475 kts | 123° |
| 2026-05-06 21:50 | 35.72784 | -120.21136 | 37131 ft | 475 kts | 123° |
| 2026-05-06 21:50 | 35.68811 | -120.14612 | 37136 ft | 477 kts | 127° |
| 2026-05-06 21:51 | 35.63968 | -120.08941 | 37134 ft | 484 kts | 139° |
| 2026-05-06 21:51 | 35.58336 | -120.04431 | 37126 ft | 487 kts | 146° |
| 2026-05-06 21:52 | 35.52504 | -120.00169 | 37129 ft | 487 kts | 146° |
| 2026-05-06 21:52 | 35.50598 | -119.98763 | 37123 ft | 487 kts | 146° |